Another Hard Day at the Office Weather Stats

 
 
 

High monthly outside Temperature, 22.8 , °C
Low monthly outside Temperature, -1.0 , °C
High yearly outside Temperature, 30.9 , °C
Low yearly outside Temperature, -2.2 , °C

Low monthly barometer, 1001.1 , mb
High monthly barometer, 1028.0 , mb
Low yearly barometer, 975.0 , mb
High yearly barometer 1041.1 , mb

High wind speed, 25.0 , mph
Time of High wind speed, 21:37 , mph
High monthly wind speed, 47.0 , mph
High yearly wind speed, 55.0 , mph

 

 




3137
                    Temp     Hi    Low   Out    Dew  Wind  Wind   Wind    Hi    Hi   Wind   Heat    THW                Rain    Heat    Cool    In     In    In     In     In   In Air  Wind  Wind    ISS   Arc.
  Date    Time     Out   Temp   Temp   Hum    Pt. Speed   Dir    Run Speed   Dir  Chill  Index  Index   Bar    Rain  Rate    D-D     D-D    Temp   Hum    Dew   Heat    EMC Density  Samp   Tx   Recept  Int.
---------------------------------------------------------------------------------------------------------------------------------------------------------------------------------------------------------------
 5/05/21   0:05    7.3    7.4    7.3    74    3.0   6.0     W   0.50  10.0     W    5.5    7.1    5.3  1005.1  0.00  0.00   0.038   0.000   30.9    26    9.2   29.4   5.35  .0711    116    1    100.0    5 
 5/05/21   0:10    7.3    7.4    7.3    74    3.0   6.0   WNW   0.50  12.0   WNW    5.5    7.1    5.3  1005.2  0.00  0.00   0.038   0.000   30.9    26    9.2   29.3   5.35  .0711    117    1    100.0    5 
 5/05/21   0:15    7.4    7.4    7.3    74    3.1   5.0   WNW   0.42  10.0   WNW    5.9    7.2    5.7  1005.2  0.00  0.00   0.038   0.000   30.9    26    9.2   29.3   5.35  .0711    117    1    100.0    5 
 5/05/21   0:20    7.3    7.4    7.3    74    3.0   5.0   WNW   0.42  10.0   WNW    5.8    7.1    5.6  1005.2  0.00  0.00   0.038   0.000   30.9    26    9.2   29.3   5.35  .0711    116    1    100.0    5 
 5/05/21   0:25    7.3    7.3    7.3    75    3.1   6.0     W   0.50  11.0     W    5.4    7.1    5.2  1005.2  0.00  0.00   0.038   0.000   30.9    26    9.2   29.3   5.35  .0711    117    1    100.0    5 
 5/05/21   0:30    7.2    7.3    7.2    75    3.1   5.0     W   0.42  11.0     W    5.7    7.0    5.5  1005.2  0.00  0.00   0.039   0.000   30.8    26    9.1   29.3   5.35  .0711    117    1    100.0    5 
 5/05/21   0:35    7.2    7.2    7.2    75    3.0   5.0   WNW   0.42   9.0   WNW    5.7    6.9    5.4  1005.2  0.00  0.00   0.039   0.000   30.8    26    9.1   29.3   5.35  .0711    116    1    100.0    5 
 5/05/21   0:40    7.1    7.2    7.1    75    3.0   5.0   WNW   0.42  11.0   WNW    5.6    6.9    5.4  1005.2  0.00  0.00   0.039   0.000   30.8    26    9.1   29.3   5.35  .0711    118    1    100.0    5 
 5/05/21   0:45    7.1    7.1    7.1    75    2.9   4.0   WNW   0.33  10.0     W    5.9    6.8    5.7  1005.1  0.00  0.00   0.039   0.000   30.8    26    9.1   29.3   5.35  .0711    117    1    100.0    5 
 5/05/21   0:50    7.0    7.1    7.0    75    2.9   5.0   WNW   0.42  10.0   WSW    5.5    6.8    5.3  1005.2  0.00  0.00   0.039   0.000   30.8    26    9.1   29.3   5.35  .0711    116    1    100.0    5 
 5/05/21   0:55    6.9    7.0    6.9    75    2.8   6.0   WNW   0.50  11.0     W    5.1    6.7    4.8  1005.2  0.00  0.00   0.040   0.000   30.7    26    9.0   29.3   5.35  .0712    116    1    100.0    5 
 5/05/21   1:00    6.9    6.9    6.9    75    2.8   5.0     W   0.42  10.0     W    5.4    6.7    5.2  1005.2  0.00  0.00   0.040   0.000   30.7    26    9.0   29.3   5.35  .0712    117    1    100.0    5 
 5/05/21   1:05    6.9    6.9    6.8    76    2.9   6.0   WNW   0.50  11.0     W    5.0    6.7    4.8  1005.3  0.00  0.00   0.040   0.000   30.7    26    9.0   29.3   5.35  .0712    114    1    100.0    5 
 5/05/21   1:10    6.8    6.8    6.8    76    2.8   5.0   WNW   0.42  10.0    NW    5.2    6.6    5.0  1005.2  0.00  0.00   0.040   0.000   30.7    26    9.0   29.2   5.35  .0712    116    1    100.0    5 
 5/05/21   1:15    6.7    6.8    6.7    75    2.6   4.0   WNW   0.33   8.0   WNW    5.6    6.5    5.3  1005.2  0.00  0.00   0.040   0.000   30.7    26    9.0   29.2   5.35  .0712    117    1    100.0    5 
 5/05/21   1:20    6.6    6.7    6.6    75    2.5   4.0   WNW   0.33  10.0     W    5.4    6.4    5.2  1005.2  0.00  0.00   0.041   0.000   30.6    26    8.9   29.2   5.35  .0712    117    1    100.0    5 
 5/05/21   1:25    6.6    6.6    6.6    76    2.6   4.0   WNW   0.33   9.0   WSW    5.4    6.3    5.2  1005.2  0.00  0.00   0.041   0.000   30.6    26    8.9   29.2   5.35  .0712    117    1    100.0    5 
 5/05/21   1:30    6.5    6.6    6.5    76    2.6   4.0   WNW   0.33   8.0   WNW    5.3    6.3    5.1  1005.3  0.00  0.00   0.041   0.000   30.6    26    8.9   29.2   5.35  .0712    117    1    100.0    5 
 5/05/21   1:35    6.5    6.6    6.4    76    2.6   4.0   WNW   0.33   8.0   WNW    5.3    6.3    5.1  1005.3  0.00  0.00   0.041   0.000   30.6    26    8.9   29.2   5.35  .0712    117    1    100.0    5 
 5/05/21   1:40    6.4    6.5    6.4    76    2.5   4.0   WNW   0.33   8.0   WNW    5.3    6.2    5.1  1005.3  0.00  0.00   0.041   0.000   30.6    26    8.9   29.2   5.35  .0712    116    1    100.0    5 
 5/05/21   1:45    6.3    6.4    6.3    76    2.4   5.0   WNW   0.42   9.0   WNW    4.7    6.1    4.5  1005.3  0.00  0.00   0.042   0.000   30.6    26    8.9   29.2   5.35  .0712    117    1    100.0    5 
 5/05/21   1:50    6.3    6.4    6.3    75    2.2   5.0   WNW   0.42  10.0   WNW    4.7    6.1    4.5  1005.3  0.00  0.00   0.042   0.000   30.6    26    8.9   29.2   5.35  .0712    117    1    100.0    5 
 5/05/21   1:55    6.3    6.3    6.3    75    2.2   5.0   WNW   0.42  11.0   WNW    4.7    6.1    4.4  1005.3  0.00  0.00   0.042   0.000   30.6    26    8.9   29.2   5.35  .0712    116    1    100.0    5 
 5/05/21   2:00    6.2    6.3    6.2    75    2.1   5.0   WNW   0.42  10.0     W    4.6    6.0    4.3  1005.3  0.00  0.00   0.042   0.000   30.5    26    8.8   29.1   5.35  .0712    115    1    100.0    5 
 5/05/21   2:05    6.2    6.3    6.2    75    2.1   5.0   WNW   0.42  10.0     W    4.6    6.0    4.3  1005.4  0.00  0.00   0.042   0.000   30.5    26    8.8   29.1   5.35  .0712    117    1    100.0    5 
 5/05/21   2:10    6.2    6.2    6.2    75    2.1   5.0   WNW   0.42   9.0   WNW    4.5    5.9    4.3  1005.4  0.00  0.00   0.042   0.000   30.5    26    8.8   29.1   5.35  .0712    117    1    100.0    5 
 5/05/21   2:15    6.2    6.2    6.2    75    2.1   6.0   WNW   0.50  11.0     W    4.1    5.9    3.9  1005.4  0.00  0.00   0.042   0.000   30.4    26    8.8   29.1   5.35  .0712    117    1    100.0    5 
 5/05/21   2:20    6.2    6.2    6.1    75    2.1   5.0   WNW   0.42  10.0     W    4.5    5.9    4.3  1005.4  0.00  0.00   0.042   0.000   30.4    26    8.8   29.1   5.35  .0712    116    1    100.0    5 
 5/05/21   2:25    6.1    6.2    6.1    74    1.8   6.0   WNW   0.50  11.0     W    4.1    5.9    3.8  1005.4  0.00  0.00   0.042   0.000   30.4    26    8.8   29.1   5.35  .0713    116    1    100.0    5 
 5/05/21   2:30    6.1    6.1    6.0    74    1.8   5.0   WNW   0.42  10.0    NW    4.4    5.8    4.2  1005.4  0.00  0.00   0.043   0.000   30.4    26    8.7   29.0   5.35  .0713    117    1    100.0    5 
 5/05/21   2:35    6.0    6.1    6.0    74    1.7   4.0   WNW   0.33   9.0   WNW    4.8    5.8    4.6  1005.4  0.00  0.00   0.043   0.000   30.4    26    8.7   29.0   5.35  .0713    115    1    100.0    5 
 5/05/21   2:40    5.9    6.0    5.9    74    1.7   5.0     W   0.42   8.0   WNW    4.2    5.7    4.0  1005.4  0.00  0.00   0.043   0.000   30.4    26    8.7   29.0   5.35  .0713    116    1    100.0    5 
 5/05/21   2:45    5.9    5.9    5.9    74    1.6   4.0     W   0.33   8.0     W    4.6    5.7    4.4  1005.4  0.00  0.00   0.043   0.000   30.3    26    8.7   28.9   5.35  .0713    117    1    100.0    5 
 5/05/21   2:50    5.8    5.9    5.8    75    1.7   5.0     W   0.42   9.0     W    4.1    5.6    3.8  1005.4  0.00  0.00   0.044   0.000   30.3    26    8.7   28.9   5.35  .0713    115    1    100.0    5 
 5/05/21   2:55    5.7    5.8    5.7    75    1.6   5.0     W   0.42   9.0   WNW    4.0    5.5    3.8  1005.4  0.00  0.00   0.044   0.000   30.3    26    8.7   28.9   5.35  .0713    117    1    100.0    5 
 5/05/21   3:00    5.7    5.7    5.6    75    1.6   5.0     W   0.42   9.0   WNW    3.9    5.4    3.7  1005.3  0.00  0.00   0.044   0.000   30.3    26    8.7   28.9   5.35  .0713    116    1    100.0    5 
 5/05/21   3:05    5.6    5.7    5.6    75    1.5   3.0   WNW   0.25   9.0     W    4.8    5.3    4.6  1005.4  0.00  0.00   0.044   0.000   30.3    26    8.6   28.9   5.35  .0713    115    1    100.0    5 
 5/05/21   3:10    5.6    5.6    5.6    75    1.5   4.0     W   0.33   9.0   WNW    4.2    5.3    4.0  1005.4  0.00  0.00   0.044   0.000   30.3    26    8.6   28.9   5.35  .0713    116    1    100.0    5 
 5/05/21   3:15    5.5    5.6    5.5    76    1.6   5.0     W   0.42  10.0     W    3.7    5.3    3.5  1005.4  0.00  0.00   0.045   0.000   30.3    26    8.6   28.9   5.35  .0713    116    1    100.0    5 
 5/05/21   3:20    5.4    5.6    5.4    76    1.5   6.0     W   0.50  12.0     W    3.3    5.2    3.1  1005.4  0.00  0.00   0.045   0.000   30.2    26    8.6   28.8   5.35  .0713    116    1    100.0    5 
 5/05/21   3:25    5.4    5.5    5.4    76    1.5   4.0     W   0.33   9.0   WNW    4.1    5.2    3.9  1005.4  0.00  0.00   0.045   0.000   30.2    26    8.6   28.8   5.35  .0713    117    1    100.0    5 
 5/05/21   3:30    5.4    5.4    5.4    76    1.5   4.0   WNW   0.33   7.0    NW    4.1    5.2    3.8  1005.4  0.00  0.00   0.045   0.000   30.2    26    8.6   28.8   5.35  .0713    117    1    100.0    5 
 5/05/21   3:35    5.4    5.4    5.3    76    1.5   4.0   WNW   0.33   9.0   WNW    4.1    5.2    3.8  1005.5  0.00  0.00   0.045   0.000   30.2    26    8.6   28.8   5.35  .0713    117    1    100.0    5 
 5/05/21   3:40    5.3    5.4    5.3    76    1.4   5.0   WNW   0.42  10.0   WNW    3.5    5.1    3.3  1005.5  0.00  0.00   0.045   0.000   30.2    26    8.5   28.8   5.35  .0713    114    1    100.0    5 
 5/05/21   3:45    5.3    5.3    5.3    77    1.6   4.0   WNW   0.33  11.0    NW    3.9    5.1    3.7  1005.5  0.00  0.00   0.045   0.000   30.2    26    8.5   28.8   5.35  .0713    117    1    100.0    5 
 5/05/21   3:50    5.3    5.3    5.3    77    1.6   5.0   WNW   0.42   9.0   WNW    3.4    5.1    3.2  1005.5  0.00  0.00   0.045   0.000   30.2    26    8.6   28.8   5.35  .0713    117    1    100.0    5 
 5/05/21   3:55    5.2    5.3    5.2    77    1.5   4.0   WNW   0.33   9.0   WNW    3.8    5.0    3.6  1005.6  0.00  0.00   0.046   0.000   30.3    26    8.6   28.9   5.35  .0713    118    1    100.0    5 
 5/05/21   4:00    5.2    5.3    5.2    77    1.5   5.0   WNW   0.42   9.0   WNW    3.4    5.0    3.2  1005.7  0.00  0.00   0.046   0.000   30.3    26    8.6   28.9   5.35  .0713    116    1    100.0    5 
 5/05/21   4:05    5.2    5.2    5.2    77    1.5   4.0   WNW   0.33   8.0    NW    3.8    4.9    3.6  1005.7  0.00  0.00   0.046   0.000   30.3    26    8.6   28.9   5.35  .0713    117    1    100.0    5 
 5/05/21   4:10    5.2    5.2    5.2    77    1.5   5.0   WNW   0.42   8.0    NW    3.3    4.9    3.1  1005.8  0.00  0.00   0.046   0.000   30.2    26    8.6   28.8   5.35  .0713    117    1    100.0    5 
 5/05/21   4:15    5.1    5.2    5.1    77    1.4   5.0   WNW   0.42   8.0   WNW    3.2    4.9    3.0  1005.8  0.00  0.00   0.046   0.000   30.2    26    8.6   28.8   5.35  .0713    116    1    100.0    5 
 5/05/21   4:20    5.1    5.1    5.1    77    1.4   6.0   WNW   0.50  10.0    NW    2.8    4.9    2.6  1005.8  0.00  0.00   0.046   0.000   30.2    26    8.5   28.8   5.35  .0714    116    1    100.0    5 
 5/05/21   4:25    5.1    5.1    5.1    77    1.4   6.0   WNW   0.50  11.0   WNW    2.8    4.8    2.6  1005.8  0.00  0.00   0.046   0.000   30.2    26    8.5   28.8   5.35  .0714    117    1    100.0    5 
 5/05/21   4:30    5.1    5.1    5.0    77    1.4   5.0   WNW   0.42  10.0   WNW    3.2    4.8    2.9  1005.9  0.00  0.00   0.046   0.000   30.1    26    8.5   28.8   5.35  .0714    114    1    100.0    5 
 5/05/21   4:35    5.0    5.1    5.0    78    1.5   6.0   WNW   0.50  11.0   WNW    2.7    4.8    2.6  1005.9  0.00  0.00   0.046   0.000   30.1    26    8.5   28.8   5.35  .0714    116    1    100.0    5 
 5/05/21   4:40    5.0    5.1    5.0    78    1.5   5.0   WNW   0.42   9.0   WNW    3.1    4.8    2.9  1005.8  0.00  0.00   0.046   0.000   30.1    26    8.4   28.7   5.35  .0714    117    1    100.0    5 
 5/05/21   4:45    5.0    5.1    5.0    78    1.5   5.0   WNW   0.42   8.0   WNW    3.1    4.8    2.9  1005.8  0.00  0.00   0.046   0.000   30.1    26    8.5   28.8   5.35  .0714    117    1    100.0    5 
 5/05/21   4:50    4.9    5.0    4.9    78    1.4   4.0   WNW   0.33   8.0   WNW    3.6    4.8    3.4  1005.9  0.00  0.00   0.046   0.000   30.1    26    8.4   28.7   5.35  .0714    117    1    100.0    5 
 5/05/21   4:55    4.9    5.0    4.9    78    1.4   5.0   WNW   0.42   8.0    NW    3.1    4.8    2.9  1005.9  0.00  0.00   0.046   0.000   30.1    26    8.4   28.7   5.35  .0714    116    1    100.0    5 
 5/05/21   5:00    4.9    5.0    4.9    78    1.4   4.0   WNW   0.33   7.0     W    3.6    4.8    3.4  1006.0  0.00  0.00   0.046   0.000   30.1    26    8.4   28.7   5.35  .0714    117    1    100.0    5 
 5/05/21   5:05    4.9    4.9    4.9    78    1.4   4.0   WNW   0.33   6.0   WNW    3.6    4.8    3.4  1006.1  0.00  0.00   0.046   0.000   30.0    26    8.4   28.7   5.35  .0714    117    1    100.0    5 
 5/05/21   5:10    4.9    4.9    4.9    78    1.4   2.0    NW   0.17   5.0   WNW    4.9    4.8    4.7  1006.1  0.00  0.00   0.046   0.000   30.0    26    8.4   28.7   5.35  .0714    116    1    100.0    5 
 5/05/21   5:15    4.9    4.9    4.9    78    1.4   2.0     W   0.17   7.0   WNW    4.9    4.8    4.7  1006.2  0.00  0.00   0.046   0.000   29.9    26    8.4   28.6   5.35  .0714    116    1    100.0    5 
 5/05/21   5:20    4.9    4.9    4.9    78    1.4   3.0     W   0.25   5.0     W    4.1    4.7    3.9  1006.2  0.00  0.00   0.047   0.000   29.9    26    8.4   28.6   5.35  .0714    115    1    100.0    5 
 5/05/21   5:25    4.8    4.9    4.8    79    1.5   4.0     W   0.33   7.0   WNW    3.4    4.7    3.2  1006.3  0.00  0.00   0.047   0.000   29.9    26    8.4   28.6   5.35  .0715    116    1    100.0    5 
 5/05/21   5:30    4.8    4.9    4.8    79    1.5   3.0   WNW   0.25   8.0     W    4.0    4.7    3.8  1006.4  0.00  0.00   0.047   0.000   29.9    26    8.4   28.6   5.35  .0715    115    1    100.0    5 
 5/05/21   5:35    4.8    4.8    4.8    79    1.4   4.0     W   0.33   6.0     W    3.3    4.6    3.2  1006.4  0.00  0.00   0.047   0.000   29.9    26    8.3   28.6   5.35  .0715    117    1    100.0    5 
 5/05/21   5:40    4.8    4.8    4.8    79    1.4   4.0     W   0.33   8.0     W    3.3    4.6    3.2  1006.5  0.00  0.00   0.047   0.000   29.9    26    8.3   28.6   5.35  .0715    117    1    100.0    5 
 5/05/21   5:45    4.8    4.8    4.7    79    1.4   4.0   WNW   0.33   8.0   WNW    3.3    4.6    3.2  1006.5  0.00  0.00   0.047   0.000   29.9    26    8.3   28.6   5.35  .0715    117    1    100.0    5 
 5/05/21   5:50    4.8    4.8    4.7    79    1.4   4.0   WNW   0.33   8.0     W    3.3    4.6    3.2  1006.5  0.00  0.00   0.047   0.000   29.8    26    8.3   28.5   5.35  .0715    117    1    100.0    5 
 5/05/21   5:55    4.8    4.8    4.7    80    1.6   5.0     W   0.42   9.0   WNW    2.9    4.6    2.7  1006.6  0.00  0.00   0.047   0.000   29.8    26    8.3   28.5   5.35  .0715    117    1    100.0    5 
 5/05/21   6:00    4.8    4.8    4.7    80    1.6   5.0     W   0.42   8.0   WNW    2.9    4.6    2.7  1006.7  0.00  0.00   0.047   0.000   29.8    26    8.2   28.4   5.35  .0715    116    1    100.0    5 
 5/05/21   6:05    4.7    4.8    4.7    80    1.5   5.0     W   0.42  11.0   WSW    2.7    4.5    2.6  1006.8  0.00  0.00   0.047   0.000   29.8    26    8.2   28.4   5.35  .0715    117    1    100.0    5 
 5/05/21   6:10    4.8    4.8    4.7    80    1.6   5.0     W   0.42   8.0   WNW    2.9    4.6    2.7  1006.9  0.00  0.00   0.047   0.000   29.8    26    8.2   28.4   5.35  .0715    117    1    100.0    5 
 5/05/21   6:15    4.8    4.8    4.8    80    1.7   5.0     W   0.42   8.0     W    2.9    4.7    2.8  1006.9  0.00  0.00   0.047   0.000   29.8    26    8.2   28.4   5.35  .0715    115    1    100.0    5 
 5/05/21   6:20    4.9    4.9    4.8    80    1.8   5.0     W   0.42   9.0   WNW    3.1    4.8    2.9  1006.9  0.00  0.00   0.046   0.000   29.8    26    8.2   28.4   5.35  .0715    115    1    100.0    5 
 5/05/21   6:25    5.0    5.1    4.9    80    1.8   4.0     W   0.33   7.0   WSW    3.6    4.8    3.4  1007.0  0.00  0.00   0.046   0.000   29.7    26    8.2   28.4   5.35  .0716    116    1    100.0    5 
 5/05/21   6:30    5.2    5.2    5.0    81    2.2   5.0     W   0.42   9.0     W    3.3    5.0    3.2  1007.0  0.00  0.00   0.046   0.000   29.7    26    8.2   28.4   5.35  .0716    116    1    100.0    5 
 5/05/21   6:35    5.3    5.3    5.2    80    2.1   5.0     W   0.42   9.0     W    3.4    5.1    3.3  1007.0  0.00  0.00   0.045   0.000   29.7    26    8.2   28.4   5.35  .0716    116    1    100.0    5 
 5/05/21   6:40    5.3    5.4    5.2    80    2.2   5.0     W   0.42   9.0     W    3.5    5.2    3.3  1007.0  0.00  0.00   0.045   0.000   29.7    26    8.2   28.4   5.35  .0716    116    1    100.0    5 
 5/05/21   6:45    5.4    5.4    5.4    80    2.3   5.0   WNW   0.42   9.0     W    3.7    5.3    3.5  1007.0  0.00  0.00   0.045   0.000   29.7    26    8.2   28.4   5.35  .0716    116    1    100.0    5 
 5/05/21   6:50    5.6    5.6    5.4    80    2.4   5.0   WNW   0.42  10.0   WNW    3.8    5.4    3.7  1007.1  0.00  0.00   0.044   0.000   29.7    26    8.2   28.4   5.35  .0716    116    1    100.0    5 
 5/05/21   6:55    5.7    5.7    5.6    80    2.5   5.0   WNW   0.42  10.0   WNW    4.0    5.6    3.8  1007.2  0.00  0.00   0.044   0.000   29.7    26    8.2   28.4   5.35  .0716    114    1    100.0    5 
 5/05/21   7:00    5.9    5.9    5.7    80    2.7   5.0   WNW   0.42  10.0   WNW    4.2    5.7    4.0  1007.2  0.00  0.00   0.043   0.000   29.7    26    8.1   28.3   5.35  .0716    116    1    100.0    5 
 5/05/21   7:05    6.0    6.0    5.9    80    2.8   5.0   WNW   0.42  10.0   WNW    4.3    5.8    4.2  1007.3  0.00  0.00   0.043   0.000   29.7    26    8.1   28.3   5.35  .0716    115    1    100.0    5 
 5/05/21   7:10    6.1    6.1    6.0    80    2.9   4.0   WNW   0.33   8.0     W    4.9    5.9    4.7  1007.3  0.00  0.00   0.042   0.000   29.7    26    8.1   28.3   5.35  .0716    118    1    100.0    5 
 5/05/21   7:15    6.3    6.3    6.2    80    3.1   5.0   WNW   0.42  11.0     W    4.7    6.1    4.5  1007.4  0.00  0.00   0.042   0.000   29.6    26    8.1   28.3   5.35  .0716    116    1    100.0    5 
 5/05/21   7:20    6.3    6.3    6.3    79    3.0   6.0   WNW   0.50  11.0     W    4.3    6.2    4.2  1007.5  0.00  0.00   0.042   0.000   29.6    26    8.1   28.3   5.35  .0716    114    1    100.0    5 
 5/05/21   7:25    6.4    6.5    6.3    79    3.1   6.0   WNW   0.50  12.0   WNW    4.4    6.3    4.3  1007.5  0.00  0.00   0.041   0.000   29.6    26    8.1   28.3   5.35  .0716    117    1    100.0    5 
 5/05/21   7:30    6.5    6.5    6.4    79    3.1   6.0   WNW   0.50  10.0    NW    4.5    6.3    4.3  1007.5  0.00  0.00   0.041   0.000   29.6    26    8.1   28.3   5.35  .0716    115    1    100.0    5 
 5/05/21   7:35    6.6    6.6    6.5    79    3.2   5.0   WNW   0.42   9.0    NW    5.1    6.5    4.9  1007.5  0.00  0.00   0.041   0.000   29.6    26    8.1   28.3   5.35  .0716    116    1    100.0    5 
 5/05/21   7:40    6.7    6.7    6.6    78    3.1   5.0   WNW   0.42  10.0    NW    5.1    6.5    4.9  1007.6  0.00  0.00   0.041   0.000   29.6    26    8.0   28.2   5.35  .0717    117    1    100.0    5 
 5/05/21   7:45    6.8    6.8    6.7    79    3.4   5.0   WNW   0.42   8.0   WNW    5.2    6.7    5.1  1007.7  0.00  0.00   0.040   0.000   29.6    26    8.0   28.2   5.35  .0717    116    1    100.0    5 
 5/05/21   7:50    6.9    6.9    6.8    78    3.4   5.0   WNW   0.42   9.0     W    5.4    6.8    5.3  1007.8  0.00  0.00   0.040   0.000   29.6    26    8.0   28.2   5.35  .0717    117    1    100.0    5 
 5/05/21   7:55    7.0    7.1    6.9    78    3.4   4.0   WNW   0.33   7.0   WNW    5.9    6.8    5.7  1007.9  0.00  0.00   0.039   0.000   29.6    26    8.0   28.2   5.35  .0717    117    1    100.0    5 
 5/05/21   8:00    7.2    7.2    7.0    78    3.6   4.0   WNW   0.33   8.0     W    6.2    7.1    6.0  1008.0  0.00  0.00   0.039   0.000   29.6    26    8.0   28.2   5.35  .0717    116    1    100.0    5 
 5/05/21   8:05    7.4    7.4    7.2    78    3.8   4.0   WNW   0.33   8.0   WSW    6.3    7.2    6.2  1008.0  0.00  0.00   0.038   0.000   29.6    26    8.0   28.2   5.35  .0717    114    1    100.0    5 
 5/05/21   8:10    7.7    7.7    7.4    78    4.1   4.0     W   0.33   8.0     W    6.7    7.5    6.5  1008.0  0.00  0.00   0.037   0.000   29.6    26    8.0   28.2   5.35  .0717    118    1    100.0    5 
 5/05/21   8:15    8.0    8.0    7.7    77    4.2   4.0   WNW   0.33   8.0     W    7.1    7.8    6.9  1008.0  0.00  0.00   0.036   0.000   29.6    27    8.6   28.3   5.55  .0717    117    1    100.0    5 
 5/05/21   8:20    8.3    8.3    7.9    77    4.5   4.0     W   0.33   8.0   WNW    7.4    8.1    7.2  1008.0  0.00  0.00   0.035   0.000   29.6    27    8.6   28.3   5.55  .0717    117    1    100.0    5 
 5/05/21   8:25    8.4    8.4    8.3    76    4.5   3.0   WNW   0.25   6.0    NW    8.1    8.3    7.9  1008.0  0.00  0.00   0.034   0.000   29.6    27    8.6   28.3   5.54  .0716    117    1    100.0    5 
 5/05/21   8:30    8.6    8.6    8.4    76    4.6   4.0   WNW   0.33   9.0   WNW    7.7    8.4    7.6  1008.1  0.00  0.00   0.034   0.000   29.6    27    8.6   28.3   5.54  .0716    116    1    100.0    5 
 5/05/21   8:35    8.7    8.7    8.6    75    4.5   4.0   WNW   0.33  10.0     W    7.9    8.6    7.7  1008.1  0.00  0.00   0.033   0.000   29.7    27    8.7   28.4   5.54  .0716    117    1    100.0    5 
 5/05/21   8:40    8.8    8.8    8.7    74    4.4   3.0   WNW   0.25   8.0     W    8.4    8.6    8.3  1008.1  0.00  0.00   0.033   0.000   29.7    27    8.7   28.4   5.54  .0716    115    1    100.0    5 
 5/05/21   8:45    8.9    8.9    8.8    74    4.6   3.0   WNW   0.25   7.0   WNW    8.6    8.8    8.4  1008.2  0.00  0.00   0.033   0.000   29.7    26    8.2   28.4   5.35  .0717    117    1    100.0    5 
 5/05/21   8:50    9.1    9.1    8.9    73    4.5   4.0   WNW   0.33   9.0   WNW    8.3    8.9    8.1  1008.1  0.00  0.00   0.032   0.000   29.7    26    8.2   28.4   5.35  .0716    117    1    100.0    5 
 5/05/21   8:55    9.3    9.3    9.1    72    4.5   4.0   WNW   0.33   9.0   WNW    8.6    9.1    8.3  1008.1  0.00  0.00   0.031   0.000   29.8    26    8.3   28.5   5.35  .0716    117    1    100.0    5 
 5/05/21   9:00    9.3    9.3    9.3    72    4.5   4.0   WNW   0.33   8.0   WNW    8.6    9.1    8.4  1008.1  0.00  0.00   0.031   0.000   29.8    26    8.2   28.4   5.35  .0716    117    1    100.0    5 
 5/05/21   9:05    9.3    9.3    9.3    71    4.3   5.0   WNW   0.42   9.0     W    8.2    9.1    8.0  1008.1  0.00  0.00   0.031   0.000   29.8    26    8.3   28.5   5.35  .0716    116    1    100.0    5 
 5/05/21   9:10    9.6    9.6    9.3    70    4.3   4.0   WNW   0.33   8.0     W    8.8    9.3    8.6  1008.2  0.00  0.00   0.030   0.000   29.8    26    8.3   28.5   5.35  .0716    117    1    100.0    5 
 5/05/21   9:15    9.7    9.7    9.5    70    4.5   4.0   WNW   0.33   8.0   WNW    9.1    9.5    8.8  1008.2  0.00  0.00   0.030   0.000   29.8    26    8.3   28.5   5.35  .0716    118    1    100.0    5 
 5/05/21   9:20   10.1   10.1    9.7    69    4.7   4.0     W   0.33  11.0     W    9.5    9.8    9.2  1008.2  0.00  0.00   0.029   0.000   29.8    26    8.3   28.5   5.35  .0716    117    1    100.0    5 
 5/05/21   9:25    9.9   10.1    9.9    67    4.1   6.0   WNW   0.50  12.0     W    8.7    9.7    8.4  1008.1  0.00  0.00   0.029   0.000   29.8    26    8.3   28.5   5.35  .0716    116    1    100.0    5 
 5/05/21   9:30   10.2   10.2    9.9    69    4.7   6.0    SW   0.50  11.0     W    8.9    9.9    8.7  1008.2  0.00  0.00   0.028   0.000   29.9    26    8.3   28.6   5.35  .0716    117    1    100.0    5 
 5/05/21   9:35   10.2   10.2   10.2    68    4.6   5.0   WSW   0.42  11.0    NW    9.3    9.9    9.0  1008.3  0.00  0.00   0.028   0.000   29.9    26    8.3   28.6   5.35  .0716    117    1    100.0    5 
 5/05/21   9:40   10.2   10.2   10.1    64    3.7   6.0   WNW   0.50  13.0   WNW    8.9    9.8    8.6  1008.4  0.00  0.00   0.028   0.000   29.6    26    8.1   28.3   5.35  .0717    117    1    100.0    5 
 5/05/21   9:45   10.4   10.4   10.2    64    3.9   3.0   WNW   0.25   9.0    NW   10.3   10.1    9.9  1008.4  0.00  0.00   0.027   0.000   28.9    27    8.0   27.7   5.55  .0719    117    1    100.0    5 
 5/05/21   9:50   10.3   10.4   10.3    64    3.8   4.0   WNW   0.33   9.0   WNW    9.8    9.9    9.4  1008.5  0.00  0.00   0.028   0.000   28.2    28    7.9   26.9   5.70  .0721    116    1    100.0    5 
 5/05/21   9:55   10.3   10.4   10.3    64    3.8   4.0   NNW   0.33   7.0    NW    9.8    9.9    9.4  1008.5  0.00  0.00   0.028   0.000   27.5    28    7.4   26.3   5.72  .0722    117    1    100.0    5 
 5/05/21  10:00   10.3   10.4   10.3    63    3.5   4.0   WNW   0.33   8.0   WSW    9.7    9.9    9.3  1008.5  0.00  0.00   0.028   0.000   26.9    29    7.3   25.7   5.85  .0724    117    1    100.0    5 
 5/05/21  10:05   10.6   10.6   10.3    62    3.6   7.0     W   0.58  13.0     W    9.1   10.1    8.7  1008.6  0.00  0.00   0.027   0.000   26.4    30    7.4   25.3   6.05  .0725    117    1    100.0    5 
 5/05/21  10:10   10.8   10.8   10.6    60    3.4   5.0     W   0.42  12.0     W   10.0   10.3    9.4  1008.6  0.00  0.00   0.026   0.000   26.0    30    7.1   25.0   6.05  .0726    117    1    100.0    5 
 5/05/21  10:15   11.2   11.2   10.8    60    3.7   5.0     W   0.42  10.0     W   10.4   10.6    9.8  1008.7  0.00  0.00   0.025   0.000   25.6    31    7.2   24.7   6.19  .0727    116    1    100.0    5 
 5/05/21  10:20   11.4   11.4   11.2    59    3.7   6.0     W   0.50  13.0     W   10.3   10.8    9.7  1008.7  0.00  0.00   0.024   0.000   25.3    32    7.4   24.6   6.40  .0728    118    1    100.0    5 
 5/05/21  10:25   11.7   11.7   11.4    59    4.0   5.0     W   0.42  10.0     W   11.0   11.1   10.3  1008.7  0.00  0.00   0.023   0.000   25.0    32    7.2   24.4   6.41  .0729    117    1    100.0    5 
 5/05/21  10:30   11.9   11.9   11.7    57    3.6   3.0   WNW   0.25   6.0   WNW   11.9   11.2   11.2  1008.7  0.00  0.00   0.022   0.000   24.7    32    6.9   24.1   6.42  .0730    117    1    100.0    5 
 5/05/21  10:35   11.6   11.9   11.6    58    3.6   4.0   WNW   0.33  11.0   WNW   11.2   10.9   10.5  1008.6  0.00  0.00   0.024   0.000   24.5    33    7.2   23.8   6.55  .0730    117    1    100.0    5 
 5/05/21  10:40   11.6   11.6   11.5    58    3.6   6.0     W   0.50  11.0   WNW   10.6   10.9    9.9  1008.7  0.00  0.00   0.024   0.000   24.3    33    7.0   23.6   6.55  .0731    117    1    100.0    5 
 5/05/21  10:45   11.4   11.6   11.4    57    3.2   6.0     W   0.50  13.0     W   10.4   10.8    9.7  1008.8  0.00  0.00   0.024   0.000   24.1    33    6.8   23.3   6.55  .0731    116    1    100.0    5 
 5/05/21  10:50   11.3   11.5   11.2    58    3.3   9.0     W   0.75  16.0     W    9.2   10.7    8.6  1008.8  0.00  0.00   0.024   0.000   23.9    34    7.1   23.2   6.75  .0732    115    1    100.0    5 
 5/05/21  10:55   11.2   11.2   11.2    58    3.3   5.0     W   0.42  11.0     W   10.4   10.6    9.8  1008.9  0.00  0.00   0.025   0.000   23.7    34    6.9   23.0   6.76  .0732    117    1    100.0    5 
 5/05/21  11:00   11.3   11.3   11.2    58    3.3   4.0     W   0.33  10.0     W   10.8   10.7   10.2  1008.9  0.00  0.00   0.024   0.000   23.6    35    7.2   22.8   6.96  .0732    116    1    100.0    5 
 5/05/21  11:05   11.3   11.4   11.3    57    3.1   6.0     W   0.50  13.0     W   10.3   10.7    9.6  1009.0  0.00  0.00   0.024   0.000   23.4    35    7.1   22.7   6.97  .0733    117    1    100.0    5 
 5/05/21  11:10   11.1   11.3   11.1    57    2.9   6.0   WNW   0.50  14.0   WNW   10.0   10.5    9.4  1009.0  0.00  0.00   0.025   0.000   23.3    35    7.0   22.6   6.97  .0733    117    1    100.0    5 
 5/05/21  11:15   11.2   11.2   11.1    59    3.4   4.0     W   0.33  13.0     W   10.7   10.6   10.1  1009.2  0.00  0.00   0.025   0.000   23.2    35    6.9   22.4   6.97  .0734    116    1    100.0    5 
 5/05/21  11:20   10.9   11.2   10.9    57    2.7   7.0    NW   0.58  14.0   WNW    9.6   10.3    8.9  1009.1  0.00  0.00   0.026   0.000   23.1    36    7.2   22.3   7.11  .0734    116    1    100.0    5 
 5/05/21  11:25   10.8   11.0   10.8    58    2.9   7.0   WNW   0.58  14.0     W    9.4   10.3    8.9  1009.2  0.00  0.00   0.026   0.000   23.1    36    7.2   22.2   7.11  .0734    118    1    100.0    5 
 5/05/21  11:30   10.9   10.9   10.8    58    2.9   6.0   WNW   0.50  11.0    NW    9.8   10.3    9.2  1009.2  0.00  0.00   0.026   0.000   22.9    37    7.5   22.1   7.28  .0734    117    1    100.0    5 
 5/05/21  11:35   11.4   11.4   10.8    58    3.5   6.0     W   0.50  13.0     W   10.4   10.8    9.7  1009.2  0.00  0.00   0.024   0.000   23.2    36    7.3   22.5   7.10  .0733    116    1    100.0    5 
 5/05/21  11:40   11.7   11.7   11.5    55    2.9   5.0     W   0.42  10.0    SW   10.9   10.9   10.2  1009.3  0.00  0.00   0.023   0.000   23.7    36    7.7   23.0   7.07  .0732    117    1    100.0    5 
 5/05/21  11:45   12.1   12.1   11.7    54    3.1   4.0     W   0.33  11.0   WSW   11.8   11.3   11.0  1009.2  0.00  0.00   0.022   0.000   24.2    35    7.7   23.5   6.94  .0731    117    1    100.0    5 
 5/05/21  11:50   12.7   12.7   12.2    53    3.3   6.0   WSW   0.50  12.0    SW   11.9   11.8   11.0  1009.2  0.00  0.00   0.020   0.000   24.6    34    7.7   23.9   6.72  .0730    117    1    100.0    5 
 5/05/21  11:55   12.6   12.8   12.6    53    3.3   7.0    SW   0.58  13.0    SW   11.6   11.7   10.7  1009.3  0.00  0.00   0.020   0.000   25.1    33    7.7   24.4   6.55  .0729    117    1    100.0    5 
 5/05/21  12:00   12.0   12.6   12.0    53    2.7   8.0   WNW   0.67  13.0    NW   10.4   11.2    9.6  1009.3  0.00  0.00   0.022   0.000   25.4    33    8.0   24.7   6.55  .0728    116    1    100.0    5 
 5/05/21  12:05   11.8   12.0   11.7    53    2.6   6.0     W   0.50  13.0   WSW   10.9   11.0   10.1  1009.4  0.00  0.00   0.023   0.000   25.8    32    7.8   24.9   6.38  .0727    117    1    100.0    5 
 5/05/21  12:10   12.4   12.4   11.8    52    2.8   6.0     W   0.50  12.0     W   11.6   11.6   10.7  1009.3  0.00  0.00   0.020   0.000   26.1    32    8.1   25.2   6.37  .0726    117    1    100.0    5 
 5/05/21  12:15   12.9   12.9   12.5    56    4.3   9.0    SW   0.75  16.0    SW   11.1   12.1   10.3  1009.3  0.00  0.00   0.019   0.000   26.4    31    7.9   25.4   6.16  .0725    116    1    100.0    5 
 5/05/21  12:20   12.3   12.8   12.3    52    2.7   9.0     W   0.75  16.0   WSW   10.4   11.4    9.6  1009.4  0.00  0.00   0.021   0.000   26.7    31    8.1   25.6   6.15  .0725    116    1    100.0    5 
 5/05/21  12:25   12.3   12.3   12.2    52    2.7   7.0     W   0.58  12.0     W   11.2   11.4   10.3  1009.4  0.00  0.00   0.021   0.000   26.9    31    8.3   25.8   6.15  .0724    118    1    100.0    5 
 5/05/21  12:30   13.1   13.1   12.4    51    3.2   7.0     W   0.58  13.0     W   12.2   12.1   11.2  1009.4  0.00  0.00   0.018   0.000   27.1    30    8.0   26.0   6.05  .0724    116    1    100.0    5 
 5/05/21  12:35   14.1   14.1   13.1    51    4.1   9.0    SW   0.75  15.0    SW   12.5   13.0   11.4  1009.3  0.00  0.00   0.015   0.000   27.3    30    8.2   26.2   6.05  .0723    117    1    100.0    5 
 5/05/21  12:40   14.1   14.2   14.1    50    3.8   9.0    SW   0.75  16.0   WSW   12.5   13.0   11.4  1009.3  0.00  0.00   0.015   0.000   27.4    30    8.3   26.3   6.05  .0723    117    1    100.0    5 
 5/05/21  12:45   13.7   14.1   13.7    51    3.7   8.0     W   0.67  14.0     W   12.4   12.7   11.4  1009.4  0.00  0.00   0.016   0.000   27.6    30    8.5   26.6   6.05  .0722    116    1    100.0    5 
 5/05/21  12:50   13.2   13.6   13.2    53    3.8   9.0    SW   0.75  17.0    SW   11.6   12.3   10.6  1009.3  0.00  0.00   0.018   0.000   27.7    30    8.6   26.7   6.05  .0722    117    1    100.0    5 
 5/05/21  12:55   13.2   13.2   13.0    58    5.1  11.0    SW   0.92  15.0    SW   10.8   12.4   10.0  1009.4  0.00  0.00   0.018   0.000   27.9    29    8.2   26.8   5.85  .0722    117    1    100.0    5 
 5/05/21  13:00   13.7   13.7   13.2    55    4.8  11.0    SW   0.92  15.0   WSW   11.4   12.8   10.5  1009.3  0.00  0.00   0.016   0.000   27.9    29    8.3   26.8   5.85  .0721    117    1    100.0    5 
 5/05/21  13:05   14.6   14.6   13.7    57    6.1  13.0    SW   1.08  19.0    SW   11.8   13.7   10.9  1009.3  0.00  0.00   0.013   0.000   28.1    29    8.4   26.9   5.85  .0721    116    1    100.0    5 
 5/05/21  13:10   14.3   14.7   14.3    56    5.6  17.0    SW   1.42  21.0    SW   10.7   13.4    9.9  1009.4  0.00  0.00   0.014   0.000   28.2    29    8.4   27.0   5.85  .0721    117    1    100.0    5 
 5/05/21  13:15   13.7   14.2   13.7    57    5.3  16.0    SW   1.33  22.0    SW   10.3   12.9    9.4  1009.3  0.00  0.00   0.016   0.000   28.2    29    8.5   27.1   5.85  .0721    116    1    100.0    5 
 5/05/21  13:20   14.3   14.3   13.7    61    6.9  17.0    SW   1.42  23.0    SW   10.7   13.6   10.1  1009.4  0.00  0.00   0.014   0.000   28.3    29    8.6   27.2   5.85  .0720    117    1    100.0    5 
 5/05/21  13:25   14.6   14.6   14.3    62    7.4  21.0    SW   1.75  26.0   WSW   10.5   13.9    9.8  1009.2  0.00  0.00   0.013   0.000   28.4    29    8.7   27.3   5.85  .0720    116    1    100.0    5 
 5/05/21  13:30   14.4   14.6   14.4    58    6.2  20.0    SW   1.67  28.0     W   10.4   13.6    9.7  1009.4  0.00  0.00   0.014   0.000   28.5    29    8.7   27.4   5.85  .0720    118    1    100.0    5 
 5/05/21  13:35   14.3   14.4   14.3    61    6.9  19.0    SW   1.58  27.0   WSW   10.4   13.6    9.8  1009.3  0.00  0.00   0.014   0.000   28.6    29    8.8   27.4   5.85  .0720    117    1    100.0    5 
 5/05/21  13:40   13.7   14.2   13.7    60    6.1  19.0    SW   1.58  25.0    SW    9.8   13.0    9.1  1009.3  0.00  0.00   0.016   0.000   28.6    28    8.3   27.4   5.68  .0720    116    1    100.0    5 
 5/05/21  13:45   13.1   13.7   13.1    60    5.5  15.0    SW   1.25  23.0   WSW    9.7   12.3    9.0  1009.5  0.00  0.00   0.018   0.000   28.7    28    8.4   27.5   5.68  .0720    117    1    100.0    5 
 5/05/21  13:50   12.1   13.0   12.1    63    5.3  13.0   WSW   1.08  23.0   WSW    9.0   11.5    8.4  1009.7  0.00  0.00   0.022   0.000   28.8    28    8.5   27.6   5.67  .0720    117    1    100.0    5 
 5/05/21  13:55   11.5   12.1   11.5    63    4.7  10.0     W   0.83  19.0    SW    9.1   11.0    8.6  1009.8  0.00  0.00   0.024   0.000   28.8    28    8.5   27.7   5.67  .0720    117    1    100.0    5 
 5/05/21  14:00   11.2   11.6   11.2    69    5.7   9.0   WSW   0.75  17.0   WSW    9.1   10.8    8.7  1010.0  0.00  0.00   0.025   0.000   28.9    28    8.6   27.8   5.67  .0719    117    1    100.0    5 
 5/05/21  14:05   10.7   11.2   10.7    71    5.6   9.0     W   0.75  16.0     W    8.5   10.4    8.2  1010.0  0.00  0.00   0.027   0.000   29.0    28    8.6   27.9   5.67  .0719    117    1    100.0    5 
 5/05/21  14:10   10.4   10.7   10.4    73    5.8  13.0    SW   1.08  20.0    SW    7.1   10.2    6.8  1009.8  0.00  0.00   0.028   0.000   29.1    28    8.7   27.9   5.66  .0719    117    1    100.0    5 
 5/05/21  14:15   10.4   10.5   10.4    75    6.1  16.0    SW   1.33  23.0   WSW    6.5   10.2    6.3  1009.9  0.00  0.00   0.028   0.000   29.1    28    8.7   27.9   5.66  .0719    116    1    100.0    5 
 5/05/21  14:20   10.1   10.4   10.1    76    6.0  16.0    SW   1.33  22.0    SW    6.1    9.9    6.0  1009.9  0.00  0.00   0.029   0.000   29.2    28    8.8   28.0   5.66  .0719    116    1    100.0    5 
 5/05/21  14:25    9.9   10.1    9.9    76    5.9  14.0    SW   1.17  21.0    SW    6.3    9.8    6.2  1010.0  0.00  0.00   0.029   0.000   29.2    28    8.8   28.1   5.66  .0719    116    1    100.0    5 
 5/05/21  14:30    9.5    9.9    9.5    76    5.5  13.0     W   1.08  22.0     W    6.0    9.3    5.8  1010.1  0.00  0.00   0.031   0.000   29.2    28    8.8   28.1   5.66  .0719    116    1    100.0    5 
 5/05/21  14:35    9.1    9.5    9.1    77    5.3  12.0     W   1.00  21.0     W    5.8    9.0    5.7  1009.9  0.00  0.00   0.032   0.000   29.3    28    8.9   28.1   5.66  .0718    116    1    100.0    5 
 5/05/21  14:40    8.6    9.1    8.6    77    4.8  13.0     W   1.08  25.0   WNW    5.1    8.5    4.9  1010.0  0.00  0.00   0.034   0.000   29.3    27    8.4   28.1   5.55  .0719    117    1    100.0    5 
 5/05/21  14:45    8.6    8.6    8.6    79    5.2  13.0   WSW   1.08  21.0    SW    5.1    8.5    4.9  1009.9  0.01  0.00   0.034   0.000   29.4    27    8.4   28.1   5.55  .0718    115    1    100.0    5 
 5/05/21  14:50    8.6    8.6    8.6    79    5.1  14.0    SW   1.17  19.0    SW    4.7    8.4    4.6  1010.0  0.01  0.09   0.034   0.000   29.4    27    8.5   28.2   5.55  .0718    116    1    100.0    5 
 5/05/21  14:55    9.0    9.0    8.6    81    5.9  12.0    SW   1.00  19.0     W    5.7    8.9    5.6  1010.0  0.00  0.09   0.032   0.000   29.4    27    8.5   28.2   5.55  .0718    117    1    100.0    5 
 5/05/21  15:00    9.8    9.8    9.0    81    6.7  11.0    SW   0.92  17.0    SW    6.8    9.8    6.8  1010.0  0.00  0.05   0.030   0.000   29.5    27    8.5   28.2   5.55  .0718    116    1    100.0    5 
 5/05/21  15:05   10.0   10.0    9.8    80    6.7  12.0    SW   1.00  18.0    SW    6.8   10.0    6.8  1009.8  0.00  0.04   0.029   0.000   29.5    27    8.5   28.2   5.55  .0718    117    1    100.0    5 
 5/05/21  15:10   10.2   10.2   10.0    79    6.7  12.0    SW   1.00  16.0    SW    7.1   10.2    7.0  1009.7  0.00  0.00   0.028   0.000   29.6    27    8.6   28.3   5.55  .0718    117    1    100.0    5 
 5/05/21  15:15   10.7   10.7   10.2    79    7.2  13.0    SW   1.08  18.0    SW    7.3   10.6    7.2  1009.7  0.00  0.00   0.027   0.000   29.6    27    8.6   28.3   5.54  .0718    117    1    100.0    5 
 5/05/21  15:20   10.9   10.9   10.7    78    7.3  13.0   SSW   1.08  17.0    SW    7.7   10.8    7.5  1009.6  0.00  0.00   0.026   0.000   29.7    26    8.1   28.3   5.35  .0718    117    1    100.0    5 
 5/05/21  15:25   10.9   11.0   10.9    78    7.2  13.0    SW   1.08  18.0    SW    7.6   10.8    7.5  1009.6  0.00  0.00   0.026   0.000   29.7    27    8.7   28.4   5.54  .0717    117    1    100.0    5 
 5/05/21  15:30   10.7   10.9   10.7    77    6.9  14.0    SW   1.17  20.0   WSW    7.2   10.6    7.1  1009.6  0.00  0.00   0.026   0.000   29.7    27    8.7   28.4   5.54  .0717    117    1    100.0    5 
 5/05/21  15:35   10.3   10.7   10.3    76    6.2  12.0   WSW   1.00  19.0   WSW    7.1   10.2    7.0  1009.6  0.00  0.00   0.028   0.000   29.7    27    8.7   28.4   5.54  .0717    118    1    100.0    5 
 5/05/21  15:40   10.2   10.2   10.1    75    5.9  10.0     W   0.83  18.0   WNW    7.6   10.1    7.5  1009.5  0.00  0.00   0.028   0.000   29.8    27    8.8   28.5   5.54  .0717    117    1    100.0    5 
 5/05/21  15:45   10.3   10.3   10.2    74    5.9  12.0     W   1.00  22.0     W    7.2   10.2    7.1  1009.5  0.00  0.00   0.028   0.000   29.8    27    8.8   28.5   5.54  .0717    117    1    100.0    5 
 5/05/21  15:50   10.7   10.7   10.3    73    6.0  14.0     W   1.17  24.0     W    7.2   10.4    6.9  1009.5  0.00  0.00   0.027   0.000   29.8    27    8.8   28.6   5.54  .0717    117    1    100.0    5 
 5/05/21  15:55   10.9   10.9   10.7    73    6.3  14.0   WSW   1.17  23.0   WSW    7.5   10.7    7.3  1009.4  0.00  0.00   0.026   0.000   29.8    27    8.8   28.6   5.54  .0717    116    1    100.0    5 
 5/05/21  16:00   10.9   11.0   10.9    74    6.4  14.0   WSW   1.17  25.0   WSW    7.4   10.7    7.2  1009.4  0.00  0.00   0.026   0.000   29.9    27    8.9   28.7   5.53  .0717    116    1    100.0    5 
 5/05/21  16:05   10.6   10.9   10.6    75    6.4  17.0    SW   1.42  27.0   WSW    6.6   10.4    6.4  1009.4  0.00  0.00   0.027   0.000   29.9    27    8.9   28.7   5.53  .0716    117    1    100.0    5 
 5/05/21  16:10   10.5   10.6   10.5    76    6.4  14.0   WSW   1.17  22.0   WSW    7.0   10.4    6.9  1009.3  0.00  0.00   0.027   0.000   29.9    27    8.9   28.7   5.53  .0716    117    1    100.0    5 
 5/05/21  16:15   10.4   10.5   10.4    76    6.4  12.0   WSW   1.00  20.0     W    7.3   10.3    7.2  1009.4  0.00  0.00   0.027   0.000   30.0    27    9.0   28.8   5.53  .0716    116    1    100.0    5 
 5/05/21  16:20   10.4   10.5   10.4    75    6.2  11.0   WSW   0.92  18.0    SW    7.6   10.3    7.4  1009.4  0.00  0.00   0.027   0.000   30.1    27    9.0   28.8   5.53  .0716    116    1    100.0    5 
 5/05/21  16:25   10.7   10.7   10.4    74    6.3  11.0   WSW   0.92  21.0   WSW    7.9   10.5    7.7  1009.4  0.00  0.00   0.026   0.000   30.1    27    9.1   28.8   5.53  .0716    116    1    100.0    5 
 5/05/21  16:30   10.8   10.9   10.7    72    6.0  10.0     W   0.83  20.0   WSW    8.4   10.6    8.1  1009.3  0.00  0.00   0.026   0.000   30.1    27    9.1   28.8   5.53  .0716    117    1    100.0    5 
 5/05/21  16:35   10.8   10.9   10.8    70    5.6  11.0     W   0.92  19.0   WNW    8.1   10.6    7.8  1009.3  0.00  0.00   0.026   0.000   30.2    27    9.1   28.9   5.52  .0716    117    1    100.0    5 
 5/05/21  16:40   10.9   10.9   10.8    69    5.4  11.0     W   0.92  24.0     W    8.1   10.6    7.8  1009.3  0.00  0.00   0.026   0.000   30.2    27    9.1   28.9   5.52  .0716    118    1    100.0    5 
 5/05/21  16:45   10.8   10.9   10.8    70    5.5  13.0     W   1.08  24.0   WSW    7.5   10.5    7.2  1009.3  0.00  0.00   0.026   0.000   30.2    27    9.1   28.9   5.52  .0716    116    1    100.0    5 
 5/05/21  16:50   10.6   10.8   10.6    72    5.7  14.0   WSW   1.17  22.0   WSW    7.1   10.3    6.8  1009.2  0.00  0.00   0.027   0.000   30.2    27    9.1   28.9   5.52  .0716    117    1    100.0    5 
 5/05/21  16:55   10.3   10.6   10.3    73    5.6  14.0   WSW   1.17  24.0   WSW    6.7   10.1    6.6  1009.2  0.00  0.00   0.028   0.000   30.3    27    9.2   29.0   5.52  .0715    117    1    100.0    5 
 5/05/21  17:00   10.4   10.4   10.2    73    5.8  14.0    SW   1.17  22.0   WSW    6.8   10.2    6.6  1009.1  0.00  0.00   0.028   0.000   30.3    27    9.2   29.0   5.52  .0715    117    1    100.0    5 
 5/05/21  17:05   10.6   10.6   10.4    73    5.9  14.0    SW   1.17  21.0   WSW    7.1   10.3    6.8  1009.0  0.00  0.00   0.027   0.000   30.3    26    8.7   28.9   5.35  .0715    117    1    100.0    5 
 5/05/21  17:10   10.8   10.8   10.6    72    6.0  10.0   WSW   0.83  17.0   WSW    8.4   10.6    8.1  1009.0  0.00  0.00   0.026   0.000   30.4    26    8.7   29.0   5.35  .0715    116    1    100.0    5 
 5/05/21  17:15   11.2   11.2   10.8    69    5.7  10.0     W   0.83  20.0   WNW    8.7   10.8    8.4  1008.9  0.00  0.00   0.025   0.000   30.4    26    8.7   29.0   5.35  .0715    117    1    100.0    5 
 5/05/21  17:20   11.5   11.5   11.2    70    6.2  11.0   WSW   0.92  20.0    SW    8.8   11.1    8.4  1008.8  0.00  0.00   0.024   0.000   30.4    26    8.8   29.1   5.35  .0715    117    1    100.0    5 
 5/05/21  17:25   11.6   11.6   11.5    69    6.1  11.0   WSW   0.92  19.0   WSW    8.9   11.2    8.5  1008.8  0.00  0.00   0.024   0.000   30.4    26    8.8   29.1   5.35  .0715    116    1    100.0    5 
 5/05/21  17:30   11.4   11.6   11.4    70    6.2  13.0   WSW   1.08  21.0    SW    8.3   11.1    7.9  1008.8  0.00  0.00   0.024   0.000   30.4    26    8.8   29.1   5.35  .0715    117    1    100.0    5 
 5/05/21  17:35   11.3   11.4   11.3    72    6.5  11.0     W   0.92  18.0     W    8.6   11.0    8.3  1008.8  0.00  0.00   0.024   0.000   30.4    26    8.8   29.1   5.35  .0715    117    1    100.0    5 
 5/05/21  17:40   11.3   11.3   11.3    72    6.5  11.0     W   0.92  19.0   WSW    8.6   11.0    8.3  1008.8  0.00  0.00   0.024   0.000   30.5    26    8.8   29.1   5.35  .0715    117    1    100.0    5 
 5/05/21  17:45   11.2   11.3   11.2    73    6.5  14.0   WSW   1.17  25.0     W    7.7   10.9    7.4  1008.7  0.00  0.00   0.025   0.000   30.5    26    8.8   29.1   5.35  .0715    118    1    100.0    5 
 5/05/21  17:50   11.1   11.2   11.1    74    6.6  15.0    SW   1.25  24.0    SW    7.4   10.8    7.2  1008.7  0.00  0.00   0.025   0.000   30.5    26    8.8   29.1   5.35  .0715    117    1    100.0    5 
 5/05/21  17:55   10.9   11.1   10.9    74    6.5  12.0    SW   1.00  23.0   WSW    7.9   10.7    7.7  1008.7  0.00  0.00   0.026   0.000   30.6    26    8.9   29.2   5.35  .0715    116    1    100.0    5 
 5/05/21  18:00   10.7   10.9   10.7    71    5.7  12.0     W   1.00  21.0   WSW    7.7   10.4    7.4  1008.8  0.00  0.00   0.026   0.000   30.6    26    8.9   29.2   5.35  .0715    117    1    100.0    5 
 5/05/21  18:05   10.6   10.8   10.6    70    5.3  10.0     W   0.83  20.0   WSW    8.1   10.3    7.8  1009.2  0.00  0.00   0.027   0.000   30.6    26    8.9   29.2   5.35  .0715    117    1    100.0    5 
 5/05/21  18:10    8.9   10.4    8.9    71    4.0  11.0     N   0.92  17.0   NNW    5.9    8.7    5.6  1009.1  0.00  0.00   0.033   0.000   30.6    27    9.5   29.3   5.51  .0714    116    1    100.0    5 
 5/05/21  18:15    8.4    8.9    8.4    73    3.8   7.0     N   0.58  14.0     N    6.5    8.2    6.3  1009.2  0.00  0.00   0.035   0.000   30.7    27    9.5   29.3   5.51  .0714    117    1    100.0    5 
 5/05/21  18:20    8.2    8.4    8.2    74    3.8   7.0     N   0.58  11.0     N    6.2    7.9    6.0  1009.3  0.00  0.00   0.035   0.000   30.7    27    9.5   29.3   5.51  .0714    117    1    100.0    5 
 5/05/21  18:25    8.0    8.2    8.0    74    3.6   7.0     N   0.58  12.0    NW    6.1    7.8    5.8  1009.4  0.00  0.00   0.036   0.000   30.7    27    9.5   29.3   5.51  .0714    115    1    100.0    5 
 5/05/21  18:30    7.9    8.0    7.8    75    3.7   6.0     N   0.50  11.0   NNW    6.2    7.7    5.9  1009.5  0.00  0.00   0.036   0.000   30.7    26    9.0   29.2   5.35  .0715    117    1    100.0    5 
 5/05/21  18:35    7.8    7.9    7.8    75    3.7   4.0   NNW   0.33   8.0    NW    6.8    7.6    6.6  1009.5  0.00  0.00   0.036   0.000   30.7    26    9.0   29.3   5.35  .0715    117    1    100.0    5 
 5/05/21  18:40    7.9    7.9    7.9    76    3.9   6.0     N   0.50  10.0   NNW    6.2    7.7    6.0  1009.5  0.00  0.00   0.036   0.000   30.7    26    9.0   29.3   5.35  .0715    116    1    100.0    5 
 5/05/21  18:45    7.9    7.9    7.9    76    4.0   6.0     N   0.50  13.0   NNE    6.3    7.8    6.1  1009.4  0.00  0.00   0.036   0.000   30.7    27    9.6   29.3   5.50  .0714    117    1    100.0    5 
 5/05/21  18:50    7.9    7.9    7.9    77    4.2   7.0   NNW   0.58  12.0    NW    6.0    7.8    5.8  1009.3  0.00  0.00   0.036   0.000   30.7    27    9.6   29.3   5.50  .0714    116    1    100.0    5 
 5/05/21  18:55    7.8    7.9    7.8    78    4.2   8.0   WNW   0.67  15.0   WNW    5.5    7.7    5.3  1009.2  0.00  0.00   0.036   0.000   30.7    27    9.6   29.3   5.50  .0714    117    1    100.0    5 
 5/05/21  19:00    7.8    7.8    7.7    78    4.2   8.0   WNW   0.67  17.0    NW    5.4    7.6    5.3  1009.0  0.00  0.00   0.037   0.000   30.7    27    9.6   29.3   5.50  .0714    115    1    100.0    5 
 5/05/21  19:05    7.8    7.8    7.8    78    4.2   5.0   WNW   0.42   9.0   WNW    6.4    7.7    6.3  1008.8  0.00  0.00   0.036   0.000   30.7    27    9.6   29.3   5.50  .0714    117    1    100.0    5 
 5/05/21  19:10    7.9    7.9    7.8    78    4.3   6.0     W   0.50  10.0     W    6.2    7.7    6.0  1008.9  0.00  0.00   0.036   0.000   30.8    27    9.6   29.4   5.50  .0714    116    1    100.0    5 
 5/05/21  19:15    8.1    8.1    7.9    79    4.6   5.0     W   0.42   9.0   WNW    6.7    7.9    6.6  1009.0  0.00  0.00   0.036   0.000   30.8    27    9.6   29.4   5.50  .0714    115    1    100.0    5 
 5/05/21  19:20    8.1    8.1    8.1    79    4.7   6.0     W   0.50  11.0     W    6.4    8.0    6.3  1009.0  0.00  0.00   0.035   0.000   30.8    27    9.6   29.4   5.50  .0714    117    1    100.0    5 
 5/05/21  19:25    8.2    8.2    8.1    79    4.7   4.0     W   0.33   8.0     W    7.2    8.1    7.1  1009.2  0.00  0.00   0.035   0.000   30.8    27    9.6   29.4   5.50  .0714    117    1    100.0    5 
 5/05/21  19:30    8.1    8.2    8.1    79    4.7   6.0     W   0.50  10.0     W    6.4    8.0    6.3  1009.2  0.01  0.00   0.035   0.000   30.8    27    9.6   29.4   5.50  .0714    117    1    100.0    5 
 5/05/21  19:35    8.1    8.2    8.1    79    4.7   4.0     W   0.33   8.0     W    7.2    8.0    7.1  1009.2  0.00  0.00   0.035   0.000   30.7    27    9.6   29.3   5.50  .0714    117    1    100.0    5 
 5/05/21  19:40    8.1    8.2    8.1    80    4.9   5.0     W   0.42  11.0   WSW    6.8    8.0    6.7  1009.2  0.00  0.00   0.035   0.000   30.8    27    9.6   29.4   5.50  .0714    117    1    100.0    5 
 5/05/21  19:45    8.2    8.2    8.1    79    4.7   6.0     W   0.50  10.0   WSW    6.5    8.1    6.4  1009.2  0.00  0.00   0.035   0.000   30.8    27    9.6   29.4   5.50  .0714    117    1    100.0    5 
 5/05/21  19:50    8.2    8.2    8.1    79    4.7   6.0     W   0.50  11.0     W    6.5    8.1    6.4  1009.1  0.00  0.00   0.035   0.000   30.8    27    9.6   29.4   5.50  .0714    114    1    100.0    5 
 5/05/21  19:55    8.2    8.2    8.1    80    4.9   4.0     W   0.33   9.0     W    7.2    8.1    7.1  1009.1  0.00  0.00   0.035   0.000   30.8    27    9.6   29.4   5.50  .0714    117    1    100.0    5 
 5/05/21  20:00    8.3    8.3    8.2    80    5.0   5.0     W   0.42  10.0   WNW    7.0    8.2    6.9  1009.1  0.00  0.00   0.035   0.000   30.8    28   10.2   29.5   5.65  .0714    116    1    100.0    5 
 5/05/21  20:05    8.3    8.3    8.2    80    5.1   4.0     W   0.33   8.0     W    7.4    8.2    7.3  1009.0  0.00  0.00   0.035   0.000   30.8    28   10.2   29.5   5.65  .0714    117    1    100.0    5 
 5/05/21  20:10    8.3    8.4    8.3    80    5.1   4.0     W   0.33   9.0     W    7.4    8.2    7.3  1009.0  0.00  0.00   0.035   0.000   30.8    28   10.2   29.5   5.65  .0714    117    1    100.0    5 
 5/05/21  20:15    8.4    8.4    8.3    80    5.1   4.0     W   0.33   7.0    SW    7.5    8.3    7.4  1009.1  0.00  0.00   0.035   0.000   30.8    28   10.2   29.5   5.65  .0714    117    1    100.0    5 
 5/05/21  20:20    8.4    8.4    8.3    80    5.1   4.0     W   0.33   9.0     W    7.5    8.3    7.4  1009.2  0.00  0.00   0.035   0.000   30.8    28   10.2   29.5   5.65  .0714    117    1    100.0    5 
 5/05/21  20:25    8.3    8.4    8.3    80    5.1   5.0     W   0.42   8.0     W    7.1    8.2    6.9  1009.2  0.00  0.00   0.035   0.000   30.8    28   10.2   29.5   5.65  .0714    116    1    100.0    5 
 5/05/21  20:30    8.3    8.4    8.3    80    5.0   4.0   WNW   0.33   7.0   WNW    7.4    8.2    7.3  1009.1  0.00  0.00   0.035   0.000   30.8    28   10.2   29.5   5.65  .0714    117    1    100.0    5 
 5/05/21  20:35    8.3    8.3    8.3    80    5.0   3.0   WNW   0.25   7.0     W    7.9    8.2    7.8  1009.1  0.00  0.00   0.035   0.000   30.8    28   10.2   29.5   5.65  .0714    116    1    100.0    5 
 5/05/21  20:40    8.2    8.3    8.2    80    5.0   4.0   WNW   0.33   6.0   WNW    7.3    8.1    7.2  1009.2  0.00  0.00   0.035   0.000   30.8    28   10.2   29.5   5.65  .0714    116    1    100.0    5 
 5/05/21  20:45    8.2    8.3    8.2    80    4.9   4.0   WNW   0.33   7.0   WNW    7.2    8.1    7.1  1009.2  0.00  0.00   0.035   0.000   30.7    28   10.1   29.4   5.65  .0714    117    1    100.0    5 
 5/05/21  20:50    8.2    8.2    8.2    80    5.0   3.0   WNW   0.25   5.0    NW    7.8    8.1    7.7  1009.4  0.00  0.00   0.035   0.000   30.8    28   10.2   29.5   5.65  .0714    117    1    100.0    5 
 5/05/21  20:55    8.1    8.2    8.1    80    4.9   3.0   WNW   0.25   6.0    NW    7.7    8.0    7.6  1009.5  0.00  0.00   0.035   0.000   30.8    28   10.2   29.5   5.65  .0714    118    1    100.0    5 
 5/05/21  21:00    8.1    8.1    8.1    80    4.8   4.0   WNW   0.33   6.0    NW    7.1    7.9    7.0  1009.5  0.00  0.00   0.036   0.000   30.8    28   10.2   29.5   5.65  .0714    117    1    100.0    5 
 5/05/21  21:05    8.0    8.1    8.0    80    4.8   3.0    NW   0.25   6.0    NW    7.6    7.9    7.4  1009.6  0.00  0.00   0.036   0.000   30.8    28   10.2   29.5   5.65  .0714    117    1    100.0    5 
 5/05/21  21:10    7.9    8.1    7.9    80    4.7   3.0   WNW   0.25   6.0    NW    7.5    7.8    7.4  1009.7  0.00  0.00   0.036   0.000   30.8    28   10.2   29.5   5.65  .0714    116    1    100.0    5 
 5/05/21  21:15    7.8    7.9    7.8    80    4.5   3.0    NW   0.25   6.0   WNW    7.3    7.7    7.2  1009.7  0.00  0.00   0.037   0.000   30.8    28   10.2   29.5   5.65  .0714    117    1    100.0    5 
 5/05/21  21:20    7.6    7.8    7.6    80    4.4   3.0   WNW   0.25   6.0   WNW    7.1    7.5    7.0  1009.6  0.00  0.00   0.037   0.000   30.8    28   10.2   29.5   5.65  .0714    117    1    100.0    5 
 5/05/21  21:25    7.4    7.6    7.4    80    4.2   2.0   NNW   0.17   4.0   NNW    7.4    7.3    7.3  1009.6  0.00  0.00   0.038   0.000   30.8    28   10.2   29.5   5.65  .0714    117    1    100.0    5 
 5/05/21  21:30    7.2    7.4    7.2    80    4.0   3.0   NNW   0.25   6.0   NNW    6.7    7.1    6.6  1009.6  0.00  0.00   0.039   0.000   30.8    28   10.2   29.5   5.65  .0714    115    1    100.0    5 
 5/05/21  21:35    7.2    7.3    7.2    80    3.9   3.0   NNW   0.25   5.0   NNW    6.6    7.1    6.5  1009.6  0.00  0.00   0.039   0.000   30.8    28   10.2   29.5   5.65  .0714    116    1    100.0    5 
 5/05/21  21:40    7.1    7.2    7.1    80    3.8   3.0   NNW   0.25   5.0     N    6.5    6.9    6.4  1009.6  0.00  0.00   0.039   0.000   30.8    28   10.2   29.5   5.65  .0714    116    1    100.0    5 
 5/05/21  21:45    6.9    7.1    6.9    81    3.9   3.0     N   0.25   5.0     N    6.4    6.8    6.3  1009.5  0.00  0.00   0.040   0.000   30.8    28   10.2   29.5   5.65  .0714    116    1    100.0    5 
 5/05/21  21:50    6.9    6.9    6.9    81    3.9   3.0   NNW   0.25   5.0     N    6.3    6.8    6.2  1009.5  0.00  0.00   0.040   0.000   30.9    28   10.3   29.6   5.65  .0714    116    1    100.0    5 
 5/05/21  21:55    6.8    6.9    6.8    81    3.8   4.0   NNW   0.33   5.0   NNW    5.7    6.7    5.6  1009.5  0.00  0.00   0.040   0.000   30.8    28   10.2   29.5   5.65  .0714    117    1    100.0    5 
 5/05/21  22:00    6.8    6.8    6.8    81    3.7   4.0   NNW   0.33   5.0   NNW    5.6    6.7    5.5  1009.5  0.00  0.00   0.040   0.000   30.9    28   10.3   29.6   5.65  .0714    118    1    100.0    5 
 5/05/21  22:05    6.7    6.8    6.7    82    3.8   3.0     N   0.25   5.0     N    6.1    6.6    5.9  1009.5  0.00  0.00   0.041   0.000   30.9    28   10.3   29.6   5.65  .0714    116    1    100.0    5 
 5/05/21  22:10    6.6    6.7    6.6    82    3.8   3.0     N   0.25   5.0     N    6.0    6.5    5.9  1009.5  0.00  0.00   0.041   0.000   30.8    28   10.2   29.5   5.65  .0714    114    1    100.0    5 
 5/05/21  22:15    6.6    6.6    6.6    82    3.7   3.0     N   0.25   5.0     N    5.9    6.4    5.8  1009.5  0.00  0.00   0.041   0.000   30.9    28   10.3   29.6   5.65  .0714    117    1    100.0    5 
 5/05/21  22:20    6.5    6.6    6.5    82    3.6   2.0     N   0.17   4.0     N    6.5    6.4    6.4  1009.5  0.00  0.00   0.041   0.000   30.9    28   10.3   29.6   5.65  .0714    116    1    100.0    5 
 5/05/21  22:25    6.6    6.6    6.5    82    3.7   2.0   NNW   0.17   3.0     N    6.6    6.4    6.4  1009.5  0.00  0.00   0.041   0.000   30.9    28   10.3   29.6   5.65  .0714    117    1    100.0    5 
 5/05/21  22:30    6.4    6.6    6.4    82    3.6   2.0   NNW   0.17   4.0   NNW    6.4    6.3    6.3  1009.4  0.00  0.00   0.041   0.000   30.9    28   10.3   29.6   5.65  .0713    117    1    100.0    5 
 5/05/21  22:35    6.4    6.5    6.4    82    3.5   3.0   NNW   0.25   4.0   NNW    5.7    6.3    5.6  1009.4  0.00  0.00   0.041   0.000   31.0    27    9.8   29.5   5.49  .0713    117    1    100.0    5 
 5/05/21  22:40    6.3    6.4    6.3    83    3.7   2.0   NNW   0.17   4.0   NNW    6.3    6.2    6.2  1009.4  0.00  0.00   0.042   0.000   31.1    27    9.9   29.6   5.49  .0713    116    1    100.0    5 
 5/05/21  22:45    6.3    6.3    6.3    83    3.6   2.0   NNW   0.17   3.0   NNW    6.3    6.2    6.2  1009.4  0.00  0.00   0.042   0.000   31.1    27    9.9   29.6   5.49  .0713    115    1    100.0    5 
 5/05/21  22:50    6.3    6.3    6.2    83    3.6   1.0   NNW   0.08   3.0   NNW    6.3    6.2    6.2  1009.4  0.00  0.00   0.042   0.000   31.0    27    9.8   29.5   5.49  .0713    116    1    100.0    5 
 5/05/21  22:55    6.2    6.3    6.2    83    3.5   2.0   NNW   0.17   3.0   NNW    6.2    6.1    6.1  1009.3  0.00  0.00   0.042   0.000   31.0    27    9.8   29.5   5.49  .0713    115    1    100.0    5 
 5/05/21  23:00    6.2    6.2    6.2    84    3.7   2.0   NNW   0.17   3.0   NNW    6.2    6.1    6.1  1009.1  0.00  0.00   0.042   0.000   31.0    27    9.8   29.5   5.49  .0713    117    1    100.0    5 
 5/05/21  23:05    6.2    6.2    6.1    84    3.7   2.0   NNW   0.17   3.0   NNW    6.2    6.1    6.1  1009.0  0.00  0.00   0.042   0.000   30.9    27    9.8   29.5   5.50  .0713    117    1    100.0    5 
 5/05/21  23:10    6.1    6.2    6.1    84    3.6   1.0   NNW   0.08   3.0   NNW    6.1    6.1    6.1  1009.0  0.00  0.00   0.042   0.000   30.9    27    9.7   29.4   5.50  .0714    116    1    100.0    5 
 5/05/21  23:15    6.1    6.1    6.1    84    3.6   1.0   NNW   0.08   2.0   NNW    6.1    6.0    6.0  1008.9  0.00  0.00   0.043   0.000   30.9    27    9.7   29.4   5.50  .0713    116    1    100.0    5 
 5/05/21  23:20    6.1    6.1    6.0    84    3.6   1.0   NNW   0.08   2.0   NNW    6.1    6.0    6.0  1008.9  0.00  0.00   0.043   0.000   30.8    27    9.7   29.4   5.50  .0714    117    1    100.0    5 
 5/05/21  23:25    6.0    6.1    6.0    84    3.5   0.0   NNW   0.00   1.0   NNW    6.0    5.9    5.9  1008.8  0.00  0.00   0.043   0.000   30.8    27    9.7   29.4   5.50  .0714    116    1    100.0    5 
 5/05/21  23:30    6.0    6.0    5.9    84    3.5   0.0   NNW   0.00   1.0   NNW    6.0    5.9    5.9  1008.8  0.00  0.00   0.043   0.000   30.8    27    9.6   29.4   5.50  .0714    117    1    100.0    5 
 5/05/21  23:35    5.9    6.0    5.9    84    3.4   0.0   NNW   0.00   1.0   NNW    5.9    5.8    5.8  1008.8  0.00  0.00   0.043   0.000   30.7    27    9.6   29.3   5.50  .0714    116    1    100.0    5 
 5/05/21  23:40    5.9    6.0    5.9    85    3.6   0.0   NNW   0.00   1.0   NNW    5.9    5.9    5.9  1008.8  0.00  0.00   0.043   0.000   30.7    27    9.6   29.3   5.50  .0714    116    1    100.0    5 
 5/05/21  23:45    5.9    5.9    5.9    85    3.6   0.0   NNW   0.00   1.0   NNW    5.9    5.8    5.8  1008.8  0.00  0.00   0.043   0.000   30.7    27    9.5   29.3   5.51  .0714    114    1    100.0    5 
 5/05/21  23:50    5.9    5.9    5.9    85    3.6   0.0   NNW   0.00   1.0   NNW    5.9    5.8    5.8  1008.8  0.00  0.00   0.043   0.000   30.6    27    9.5   29.3   5.51  .0714    113    1     99.1    5 
 5/05/21  23:55    5.9    6.0    5.9    85    3.6   0.0   NNW   0.00   1.0   NNW    5.9    5.9    5.9  1008.8  0.00  0.00   0.043   0.000   30.6    27    9.5   29.3   5.51  .0714    117    1    100.0    5 
 6/05/21  00:00    5.9    6.0    5.9    85    3.6   2.0   NNW   0.17   4.0   NNW    5.9    5.8    5.8  1008.8  0.00  0.00   0.043   0.000   30.6    27    9.4   29.3   5.51  .0714    117    1    100.0    5 
 6/05/21   0:05    5.7    5.9    5.7    85    3.3   3.0   NNW   0.25   4.0   NNW    4.9    5.6    4.8  1008.8  0.00  0.00   0.044   0.000   30.6    27    9.4   29.3   5.51  .0714    116    1    100.0    5 
 6/05/21   0:10    5.4    5.7    5.4    85    3.1   3.0   NNW   0.25   4.0   NNW    4.7    5.3    4.6  1008.8  0.00  0.00   0.045   0.000   30.6    27    9.4   29.3   5.51  .0714    117    1    100.0    5 
 6/05/21   0:15    5.2    5.4    5.2    85    2.9   3.0   NNW   0.25   4.0   NNW    4.3    5.1    4.2  1008.7  0.00  0.00   0.046   0.000   30.5    27    9.4   29.2   5.51  .0714    117    1    100.0    5 
 6/05/21   0:20    5.0    5.2    5.0    86    2.9   3.0     N   0.25   4.0   NNW    4.2    4.9    4.1  1008.8  0.00  0.00   0.046   0.000   30.5    27    9.4   29.2   5.51  .0714    116    1    100.0    5 
 6/05/21   0:25    4.9    4.9    4.8    86    2.7   3.0     N   0.25   5.0   NNW    4.1    4.8    3.9  1008.7  0.00  0.00   0.047   0.000   30.4    27    9.3   29.2   5.51  .0715    117    1    100.0    5 
 6/05/21   0:30    4.7    4.9    4.7    86    2.6   3.0   NNW   0.25   5.0     N    3.9    4.6    3.8  1008.7  0.00  0.00   0.047   0.000   30.4    27    9.3   29.2   5.51  .0715    115    1    100.0    5 
 6/05/21   0:35    4.7    4.8    4.7    86    2.5   3.0   NNW   0.25   4.0   NNW    3.8    4.6    3.7  1008.7  0.00  0.00   0.047   0.000   30.4    27    9.3   29.1   5.52  .0715    118    1    100.0    5 
 6/05/21   0:40    4.6    4.7    4.6    86    2.5   3.0   NNW   0.25   4.0   NNW    3.7    4.5    3.6  1008.7  0.00  0.00   0.048   0.000   30.4    27    9.3   29.2   5.51  .0715    117    1    100.0    5 
 6/05/21   0:45    4.6    4.7    4.6    87    2.6   3.0   NNW   0.25   4.0   NNW    3.7    4.5    3.6  1008.7  0.00  0.00   0.048   0.000   30.4    27    9.3   29.2   5.51  .0715    117    1    100.0    5 
 6/05/21   0:50    4.6    4.6    4.6    87    2.6   3.0   NNW   0.25   4.0   NNW    3.7    4.4    3.6  1008.7  0.00  0.00   0.048   0.000   30.4    27    9.3   29.1   5.52  .0715    116    1    100.0    5 
 6/05/21   0:55    4.6    4.6    4.5    87    2.6   1.0   NNW   0.08   3.0   NNW    4.6    4.4    4.4  1008.7  0.00  0.00   0.048   0.000   30.3    27    9.2   29.1   5.52  .0715    115    1    100.0    5 
 6/05/21   1:00    4.7    4.7    4.6    87    2.7   2.0   NNW   0.17   3.0   NNW    4.6    4.6    4.4  1008.6  0.00  0.00   0.047   0.000   30.3    27    9.2   29.1   5.52  .0715    117    1    100.0    5 
 6/05/21   1:05    4.7    4.7    4.7    87    2.7   2.0   NNW   0.17   3.0   NNW    4.6    4.6    4.5  1008.6  0.00  0.00   0.047   0.000   30.3    27    9.2   29.0   5.52  .0715    116    1    100.0    5 
 6/05/21   1:10    4.7    4.7    4.7    87    2.7   2.0   NNW   0.17   4.0   NNW    4.6    4.6    4.4  1008.5  0.00  0.00   0.047   0.000   30.3    27    9.2   29.0   5.52  .0715    116    1    100.0    5 
 6/05/21   1:15    4.7    4.7    4.7    87    2.7   2.0   NNW   0.17   3.0   NNW    4.6    4.6    4.4  1008.5  0.00  0.00   0.047   0.000   30.3    27    9.2   29.0   5.52  .0715    117    1    100.0    5 
 6/05/21   1:20    4.7    4.7    4.6    87    2.7   2.0   NNW   0.17   4.0   NNW    4.6    4.6    4.4  1008.4  0.00  0.00   0.047   0.000   30.2    27    9.1   28.9   5.52  .0715    117    1    100.0    5 
 6/05/21   1:25    4.7    4.7    4.7    87    2.7   2.0   NNW   0.17   3.0   NNW    4.6    4.6    4.4  1008.4  0.00  0.00   0.047   0.000   30.2    27    9.1   28.9   5.52  .0715    117    1    100.0    5 
 6/05/21   1:30    4.7    4.8    4.7    87    2.7   1.0   NNW   0.08   3.0   NNW    4.7    4.6    4.6  1008.4  0.00  0.00   0.047   0.000   30.2    27    9.1   28.9   5.52  .0715    117    1    100.0    5 
 6/05/21   1:35    4.7    4.8    4.7    87    2.7   2.0   NNW   0.17   3.0   NNW    4.6    4.6    4.4  1008.4  0.00  0.00   0.047   0.000   30.1    27    9.1   28.8   5.53  .0715    117    1    100.0    5 
 6/05/21   1:40    4.7    4.7    4.6    87    2.7   2.0   NNW   0.17   3.0   NNW    4.6    4.6    4.4  1008.3  0.00  0.00   0.047   0.000   30.1    27    9.1   28.8   5.53  .0715    118    1    100.0    5 
 6/05/21   1:45    4.6    4.7    4.6    87    2.6   2.0   NNW   0.17   3.0   NNW    4.5    4.5    4.4  1008.2  0.00  0.00   0.048   0.000   30.1    27    9.1   28.8   5.53  .0715    116    1    100.0    5 
 6/05/21   1:50    4.6    4.7    4.6    87    2.6   2.0   NNW   0.17   4.0   NNW    4.5    4.5    4.4  1008.1  0.00  0.00   0.048   0.000   30.1    27    9.1   28.8   5.53  .0715    117    1    100.0    5 
 6/05/21   1:55    4.7    4.7    4.6    87    2.7   2.0   NNW   0.17   3.0   NNW    4.6    4.6    4.4  1008.0  0.00  0.00   0.047   0.000   30.1    27    9.0   28.8   5.53  .0715    117    1    100.0    5 
 6/05/21   2:00    4.7    4.7    4.6    87    2.7   2.0    NW   0.17   5.0    NW    4.6    4.6    4.4  1008.0  0.00  0.00   0.047   0.000   30.1    27    9.0   28.8   5.53  .0715    116    1    100.0    5 
 6/05/21   2:05    4.7    4.7    4.7    87    2.7   2.0    NW   0.17   3.0    NW    4.6    4.6    4.5  1007.9  0.00  0.00   0.047   0.000   30.1    27    9.0   28.8   5.53  .0715    117    1    100.0    5 
 6/05/21   2:10    4.7    4.7    4.7    87    2.7   2.0    NW   0.17   3.0    NW    4.6    4.6    4.5  1007.9  0.00  0.00   0.047   0.000   30.1    27    9.0   28.8   5.53  .0715    116    1    100.0    5 
 6/05/21   2:15    4.7    4.8    4.7    88    2.9   2.0    NW   0.17   2.0    NW    4.6    4.7    4.6  1007.8  0.00  0.00   0.047   0.000   30.1    27    9.0   28.8   5.53  .0715    117    1    100.0    5 
 6/05/21   2:20    4.7    4.8    4.7    87    2.7   2.0    NW   0.17   3.0    NW    4.6    4.6    4.4  1007.7  0.00  0.00   0.047   0.000   30.0    27    9.0   28.8   5.53  .0715    117    1    100.0    5 
 6/05/21   2:25    4.7    4.7    4.7    88    2.9   2.0    NW   0.17   3.0    NW    4.6    4.7    4.6  1007.5  0.00  0.00   0.047   0.000   29.9    27    8.9   28.7   5.53  .0715    117    1    100.0    5 
 6/05/21   2:30    4.8    4.8    4.7    88    3.0   2.0    NW   0.17   3.0    NW    4.8    4.8    4.7  1007.5  0.00  0.00   0.047   0.000   29.9    27    8.9   28.7   5.53  .0715    116    1    100.0    5 
 6/05/21   2:35    4.9    4.9    4.8    88    3.1   2.0    NW   0.17   3.0    NW    4.9    4.9    4.8  1007.4  0.00  0.00   0.046   0.000   29.9    27    8.9   28.7   5.53  .0715    117    1    100.0    5 
 6/05/21   2:40    4.9    5.0    4.9    87    3.0   2.0    NW   0.17   2.0    NW    4.9    4.8    4.8  1007.3  0.00  0.00   0.046   0.000   29.9    27    8.9   28.7   5.53  .0715    117    1    100.0    5 
 6/05/21   2:45    5.0    5.0    4.9    87    3.0   2.0    NW   0.17   3.0    NW    4.9    4.9    4.8  1007.3  0.00  0.00   0.046   0.000   29.9    27    8.9   28.7   5.53  .0715    118    1    100.0    5 
 6/05/21   2:50    5.1    5.1    5.0    87    3.1   2.0    NW   0.17   3.0    NW    5.0    4.9    4.9  1007.2  0.00  0.00   0.046   0.000   29.9    27    8.9   28.7   5.53  .0715    115    1    100.0    5 
 6/05/21   2:55    5.0    5.1    5.0    87    3.0   2.0    NW   0.17   3.0    NW    4.9    4.9    4.8  1007.1  0.00  0.00   0.046   0.000   29.9    27    8.9   28.7   5.53  .0715    116    1    100.0    5 
 6/05/21   3:00    4.9    5.1    4.9    87    3.0   2.0    NW   0.17   2.0    NW    4.9    4.8    4.8  1007.0  0.00  0.00   0.046   0.000   29.8    27    8.8   28.6   5.54  .0715    117    1    100.0    5 
 6/05/21   3:05    5.1    5.1    4.9    88    3.2   1.0    NW   0.08   2.0    NW    5.1    5.0    5.0  1007.0  0.00  0.00   0.046   0.000   29.8    27    8.8   28.6   5.54  .0715    117    1    100.0    5 
 6/05/21   3:10    5.1    5.1    5.0    87    3.1   2.0    NW   0.17   2.0    NW    5.1    5.0    4.9  1007.0  0.00  0.00   0.046   0.000   29.8    27    8.8   28.6   5.54  .0715    116    1    100.0    5 
 6/05/21   3:15    5.1    5.1    5.1    87    3.1   1.0    NW   0.08   2.0    NW    5.1    5.0    5.0  1007.0  0.00  0.00   0.046   0.000   29.8    27    8.8   28.6   5.54  .0715    117    1    100.0    5 
 6/05/21   3:20    5.2    5.2    5.1    87    3.2   2.0    NW   0.17   3.0    NW    5.2    5.2    5.1  1007.0  0.00  0.00   0.046   0.000   29.8    27    8.8   28.6   5.54  .0715    117    1    100.0    5 
 6/05/21   3:25    5.2    5.2    5.2    87    3.2   2.0    NW   0.17   3.0    NW    5.1    5.1    5.1  1006.9  0.00  0.00   0.046   0.000   29.8    27    8.8   28.5   5.54  .0715    117    1    100.0    5 
 6/05/21   3:30    5.0    5.2    5.0    87    3.0   3.0    NW   0.25   4.0    NW    4.2    4.9    4.1  1006.8  0.00  0.00   0.046   0.000   29.8    27    8.8   28.5   5.54  .0715    117    1    100.0    5 
 6/05/21   3:35    4.8    5.0    4.8    87    2.9   2.0    NW   0.17   3.0    NW    4.8    4.7    4.7  1006.7  0.00  0.00   0.047   0.000   29.8    27    8.8   28.5   5.54  .0715    117    1    100.0    5 
 6/05/21   3:40    4.8    4.9    4.8    87    2.9   2.0    NW   0.17   3.0    NW    4.8    4.7    4.7  1006.7  0.00  0.00   0.047   0.000   29.7    27    8.7   28.4   5.54  .0715    117    1    100.0    5 
 6/05/21   3:45    4.8    4.9    4.8    87    2.9   2.0    NW   0.17   3.0    NW    4.8    4.7    4.7  1006.6  0.00  0.00   0.047   0.000   29.7    27    8.7   28.4   5.54  .0715    117    1    100.0    5 
 6/05/21   3:50    4.9    4.9    4.8    87    2.9   2.0    NW   0.17   3.0    NW    4.8    4.8    4.7  1006.6  0.00  0.00   0.047   0.000   29.8    27    8.8   28.5   5.54  .0715    114    1    100.0    5 
 6/05/21   3:55    5.0    5.0    4.9    87    3.0   2.0    NW   0.17   3.0    NW    4.9    4.9    4.8  1006.6  0.00  0.00   0.046   0.000   29.9    27    8.9   28.7   5.53  .0715    116    1    100.0    5 
 6/05/21   4:00    5.1    5.1    5.0    88    3.2   2.0    NW   0.17   2.0    NW    5.0    5.0    4.9  1006.5  0.00  0.00   0.046   0.000   29.9    27    8.9   28.7   5.53  .0715    116    1    100.0    5 
 6/05/21   4:05    5.2    5.2    5.1    87    3.2   2.0    NW   0.17   3.0    NW    5.1    5.1    5.1  1006.5  0.00  0.00   0.046   0.000   29.8    27    8.8   28.6   5.54  .0715    115    1    100.0    5 
 6/05/21   4:10    5.1    5.2    5.1    87    3.1   1.0    NW   0.08   3.0    NW    5.1    5.0    5.0  1006.3  0.00  0.00   0.046   0.000   29.8    27    8.8   28.6   5.54  .0715    117    1    100.0    5 
 6/05/21   4:15    5.1    5.1    5.1    87    3.1   2.0    NW   0.17   3.0    NW    5.0    4.9    4.9  1006.3  0.00  0.00   0.046   0.000   29.8    27    8.8   28.5   5.54  .0715    116    1    100.0    5 
 6/05/21   4:20    5.1    5.1    5.0    87    3.1   2.0    NW   0.17   3.0    NW    5.0    4.9    4.9  1006.3  0.00  0.00   0.046   0.000   29.8    27    8.8   28.5   5.54  .0715    115    1    100.0    5 
 6/05/21   4:25    4.9    5.1    4.9    87    3.0   2.0    NW   0.17   3.0    NW    4.9    4.8    4.8  1006.2  0.00  0.00   0.046   0.000   29.7    27    8.7   28.4   5.54  .0715    117    1    100.0    5 
 6/05/21   4:30    4.7    4.9    4.7    87    2.7   2.0    NW   0.17   3.0    NW    4.6    4.6    4.5  1006.1  0.00  0.00   0.047   0.000   29.7    27    8.7   28.4   5.54  .0715    117    1    100.0    5 
 6/05/21   4:35    4.6    4.8    4.6    87    2.6   2.0    NW   0.17   3.0    NW    4.5    4.5    4.4  1006.1  0.00  0.00   0.048   0.000   29.7    27    8.7   28.4   5.54  .0715    117    1    100.0    5 
 6/05/21   4:40    4.5    4.6    4.5    87    2.5   2.0    NW   0.17   3.0    NW    4.4    4.4    4.3  1006.1  0.00  0.00   0.048   0.000   29.7    27    8.7   28.4   5.54  .0715    116    1    100.0    5 
 6/05/21   4:45    4.4    4.5    4.4    87    2.5   2.0    NW   0.17   3.0    NW    4.3    4.3    4.2  1006.0  0.00  0.00   0.048   0.000   29.7    27    8.7   28.4   5.54  .0715    116    1    100.0    5 
 6/05/21   4:50    4.4    4.4    4.4    88    2.6   2.0    NW   0.17   3.0    NW    4.3    4.4    4.3  1005.9  0.00  0.00   0.048   0.000   29.7    27    8.7   28.4   5.54  .0715    117    1    100.0    5 
 6/05/21   4:55    4.4    4.4    4.4    87    2.4   2.0    NW   0.17   3.0    NW    4.3    4.3    4.2  1005.8  0.00  0.00   0.048   0.000   29.7    27    8.7   28.4   5.54  .0715    115    1    100.0    5 
 6/05/21   5:00    4.3    4.4    4.3    87    2.4   2.0    NW   0.17   4.0    NW    4.2    4.2    4.1  1005.8  0.00  0.00   0.049   0.000   29.6    27    8.6   28.3   5.54  .0715    115    1    100.0    5 
 6/05/21   5:05    4.3    4.3    4.3    87    2.3   3.0    NW   0.25   4.0    NW    3.3    4.2    3.2  1005.8  0.00  0.00   0.049   0.000   29.6    27    8.6   28.3   5.54  .0715    117    1    100.0    5 
 6/05/21   5:10    4.2    4.3    4.2    87    2.2   4.0   NNW   0.33   5.0   NNW    2.6    4.1    2.5  1005.7  0.00  0.00   0.049   0.000   29.6    27    8.6   28.3   5.54  .0715    116    1    100.0    5 
 6/05/21   5:15    4.1    4.2    4.1    87    2.1   4.0   NNW   0.33   6.0   NNW    2.6    4.0    2.4  1005.7  0.00  0.00   0.049   0.000   29.6    27    8.6   28.3   5.55  .0715    116    1    100.0    5 
 6/05/21   5:20    4.1    4.1    4.1    88    2.2   4.0   NNW   0.33   5.0     N    2.5    4.0    2.4  1005.6  0.00  0.00   0.050   0.000   29.6    27    8.6   28.3   5.55  .0715    117    1    100.0    5 
 6/05/21   5:25    4.1    4.2    4.1    87    2.1   3.0   NNW   0.25   4.0   NNW    3.1    3.9    3.0  1005.6  0.00  0.00   0.050   0.000   29.6    27    8.6   28.3   5.55  .0715    117    1    100.0    5 
 6/05/21   5:30    4.1    4.1    4.1    87    2.1   4.0   NNW   0.33   5.0   NNW    2.5    3.9    2.4  1005.5  0.00  0.00   0.050   0.000   29.6    27    8.6   28.3   5.55  .0715    115    1    100.0    5 
 6/05/21   5:35    4.1    4.1    4.1    87    2.1   4.0   NNW   0.33   6.0   NNW    2.5    3.9    2.4  1005.4  0.00  0.00   0.050   0.000   29.5    27    8.5   28.2   5.55  .0715    116    1    100.0    5 
 6/05/21   5:40    4.1    4.1    4.1    87    2.1   3.0   NNW   0.25   5.0   NNW    3.1    3.9    3.0  1005.4  0.00  0.00   0.050   0.000   29.5    27    8.5   28.2   5.55  .0715    116    1    100.0    5 
 6/05/21   5:45    4.1    4.1    4.1    87    2.1   4.0   NNW   0.33   5.0   NNW    2.5    3.9    2.4  1005.4  0.00  0.00   0.050   0.000   29.5    27    8.5   28.2   5.55  .0715    115    1    100.0    5 
 6/05/21   5:50    4.0    4.1    4.0    87    2.0   3.0   NNW   0.25   5.0     N    3.1    3.9    2.9  1005.3  0.00  0.00   0.050   0.000   29.4    27    8.5   28.2   5.55  .0715    117    1    100.0    5 
 6/05/21   5:55    4.1    4.1    4.0    87    2.1   3.0   NNW   0.25   4.0   NNW    3.1    3.9    3.0  1005.3  0.00  0.00   0.050   0.000   29.4    27    8.5   28.2   5.55  .0715    117    1    100.0    5 
 6/05/21   6:00    4.2    4.2    4.1    87    2.2   3.0   NNW   0.25   4.0   NNW    3.2    4.1    3.1  1005.3  0.00  0.00   0.049   0.000   29.4    27    8.5   28.2   5.55  .0715    117    1    100.0    5 
 6/05/21   6:05    4.3    4.3    4.2    87    2.3   3.0   NNW   0.25   5.0   NNW    3.3    4.2    3.2  1005.2  0.00  0.00   0.049   0.000   29.4    27    8.4   28.1   5.55  .0715    117    1    100.0    5 
 6/05/21   6:10    4.4    4.4    4.3    87    2.4   3.0   NNW   0.25   4.0   NNW    3.5    4.3    3.4  1005.2  0.00  0.00   0.048   0.000   29.4    27    8.4   28.1   5.55  .0715    117    1    100.0    5 
 6/05/21   6:15    4.5    4.5    4.4    87    2.5   3.0   NNW   0.25   4.0   NNW    3.6    4.4    3.5  1005.2  0.00  0.00   0.048   0.000   29.4    27    8.4   28.1   5.55  .0715    116    1    100.0    5 
 6/05/21   6:20    4.7    4.7    4.5    87    2.7   2.0   NNW   0.17   4.0   NNW    4.6    4.6    4.4  1005.1  0.00  0.00   0.047   0.000   29.4    27    8.4   28.1   5.55  .0715    117    1    100.0    5 
 6/05/21   6:25    4.8    4.8    4.7    87    2.8   2.0   NNW   0.17   3.0   NNW    4.7    4.7    4.6  1005.1  0.00  0.00   0.047   0.000   29.3    27    8.4   28.1   5.55  .0715    117    1    100.0    5 
 6/05/21   6:30    4.8    4.8    4.8    87    2.9   2.0   NNW   0.17   4.0   NNW    4.8    4.7    4.7  1005.0  0.00  0.00   0.047   0.000   29.3    27    8.4   28.1   5.55  .0715    117    1    100.0    5 
 6/05/21   6:35    4.9    4.9    4.8    87    3.0   3.0   NNW   0.25   4.0   NNW    4.1    4.8    4.0  1005.0  0.00  0.00   0.046   0.000   29.3    27    8.4   28.1   5.55  .0715    117    1    100.0    5 
 6/05/21   6:40    5.0    5.0    4.9    87    3.0   3.0   NNW   0.25   4.0   NNW    4.2    4.9    4.1  1005.1  0.00  0.00   0.046   0.000   29.3    27    8.4   28.1   5.55  .0715    117    1    100.0    5 
 6/05/21   6:45    5.1    5.1    5.0    87    3.1   4.0   NNW   0.33   5.0   NNW    3.7    4.9    3.6  1005.0  0.00  0.00   0.046   0.000   29.3    27    8.4   28.1   5.55  .0715    114    1    100.0    5 
 6/05/21   6:50    5.1    5.1    5.0    87    3.1   4.0   NNW   0.33   5.0   NNW    3.7    4.9    3.6  1005.0  0.00  0.00   0.046   0.000   29.3    27    8.3   28.0   5.55  .0715    117    1    100.0    5 
 6/05/21   6:55    5.2    5.2    5.1    87    3.2   4.0   NNW   0.33   5.0     N    3.8    5.1    3.7  1004.9  0.00  0.00   0.046   0.000   29.3    27    8.3   28.0   5.55  .0715    117    1    100.0    5 
 6/05/21   7:00    5.2    5.2    5.2    87    3.2   4.0   NNW   0.33   5.0   NNW    3.8    5.2    3.8  1004.9  0.00  0.00   0.046   0.000   29.3    27    8.3   28.0   5.55  .0715    117    1    100.0    5 
 6/05/21   7:05    5.3    5.3    5.2    86    3.2   5.0   NNW   0.42   6.0   NNW    3.5    5.2    3.4  1004.9  0.00  0.00   0.045   0.000   29.3    27    8.3   28.0   5.55  .0715    118    1    100.0    5 
 6/05/21   7:10    5.4    5.4    5.3    86    3.3   4.0   NNW   0.33   5.0   NNW    4.1    5.3    4.0  1004.9  0.00  0.00   0.045   0.000   29.2    27    8.3   28.0   5.55  .0715    117    1    100.0    5 
 6/05/21   7:15    5.6    5.6    5.4    86    3.4   3.0   NNW   0.25   4.0   NNW    4.8    5.4    4.7  1004.9  0.00  0.00   0.044   0.000   29.2    27    8.3   28.0   5.55  .0715    116    1    100.0    5 
 6/05/21   7:20    5.7    5.7    5.6    86    3.5   3.0   NNW   0.25   4.0   NNW    4.9    5.6    4.8  1005.0  0.00  0.00   0.044   0.000   29.2    27    8.3   28.0   5.55  .0715    116    1    100.0    5 
 6/05/21   7:25    5.8    5.8    5.7    86    3.6   3.0   NNW   0.25   4.0   NNW    5.1    5.7    5.0  1005.0  0.00  0.00   0.044   0.000   29.2    27    8.3   28.0   5.55  .0715    117    1    100.0    5 
 6/05/21   7:30    5.9    5.9    5.8    86    3.8   3.0   NNW   0.25   4.0   NNW    5.2    5.9    5.2  1005.0  0.00  0.00   0.043   0.000   29.2    27    8.3   28.0   5.55  .0715    117    1    100.0    5 
 6/05/21   7:35    6.2    6.2    5.9    86    4.1   3.0   NNW   0.25   4.0   NNW    5.6    6.2    5.5  1005.0  0.00  0.00   0.042   0.000   29.2    27    8.2   27.9   5.55  .0716    116    1    100.0    5 
 6/05/21   7:40    6.6    6.6    6.2    86    4.4   3.0   NNW   0.25   3.0   NNW    5.9    6.5    5.9  1005.0  0.00  0.00   0.041   0.000   29.2    27    8.3   28.0   5.55  .0715    117    1    100.0    5 
 6/05/21   7:45    6.8    6.8    6.6    86    4.6   3.0   NNW   0.25   4.0   NNW    6.2    6.7    6.1  1005.0  0.00  0.00   0.040   0.000   29.2    27    8.2   27.9   5.55  .0716    117    1    100.0    5 
 6/05/21   7:50    7.1    7.1    6.8    85    4.7   2.0   NNW   0.17   4.0   NNW    7.1    7.0    7.0  1005.0  0.00  0.00   0.039   0.000   29.2    27    8.2   27.9   5.55  .0715    117    1    100.0    5 
 6/05/21   7:55    7.3    7.3    7.1    85    5.0   2.0   NNW   0.17   3.0   NNW    7.3    7.3    7.3  1005.0  0.00  0.00   0.038   0.000   29.2    27    8.2   27.9   5.55  .0716    117    1    100.0    5 
 6/05/21   8:00    7.6    7.6    7.3    84    5.1   2.0   NNW   0.17   4.0   NNW    7.6    7.6    7.6  1005.0  0.00  0.00   0.037   0.000   29.2    27    8.2   27.9   5.55  .0715    116    1    100.0    5 
 6/05/21   8:05    7.7    7.7    7.6    83    5.0   3.0   NNW   0.25   5.0   NNW    7.3    7.7    7.2  1004.9  0.00  0.00   0.037   0.000   29.2    27    8.2   27.9   5.55  .0715    118    1    100.0    5 
 6/05/21   8:10    7.9    7.9    7.7    83    5.2   3.0   NNW   0.25   4.0   NNW    7.4    7.8    7.4  1004.9  0.00  0.00   0.036   0.000   29.2    27    8.3   28.0   5.55  .0715    115    1    100.0    5 
 6/05/21   8:15    8.2    8.2    7.9    83    5.5   1.0   NNW   0.08   3.0   NNW    8.2    8.1    8.1  1004.8  0.00  0.00   0.035   0.000   29.2    27    8.2   27.9   5.55  .0715    116    1    100.0    5 
 6/05/21   8:20    8.4    8.4    8.2    82    5.5   1.0   NNW   0.08   2.0   NNW    8.4    8.4    8.4  1004.8  0.00  0.00   0.034   0.000   29.2    27    8.2   27.9   5.55  .0715    117    1    100.0    5 
 6/05/21   8:25    8.7    8.7    8.4    81    5.6   1.0   NNW   0.08   2.0   NNW    8.7    8.7    8.7  1004.8  0.00  0.00   0.033   0.000   29.2    27    8.2   27.9   5.55  .0715    117    1    100.0    5 
 6/05/21   8:30    9.1    9.2    8.8    81    6.0   0.0   NNW   0.00   1.0   NNW    9.1    9.1    9.1  1004.7  0.00  0.00   0.032   0.000   29.2    27    8.2   27.9   5.55  .0715    116    1    100.0    5 
 6/05/21   8:35    9.4    9.4    9.2    79    6.0   1.0    NW   0.08   2.0   NNW    9.4    9.4    9.4  1004.7  0.00  0.00   0.031   0.000   29.2    27    8.2   27.9   5.55  .0715    117    1    100.0    5 
 6/05/21   8:40    9.8    9.8    9.4    79    6.4   2.0    NW   0.17   3.0    NW    9.8    9.8    9.8  1004.7  0.00  0.00   0.030   0.000   29.2    27    8.2   27.9   5.55  .0715    116    1    100.0    5 
 6/05/21   8:45   10.3   10.3    9.8    78    6.6   2.0    NW   0.17   3.0    NW   10.3   10.2   10.2  1004.7  0.00  0.00   0.028   0.000   29.2    27    8.2   27.9   5.55  .0715    117    1    100.0    5 
 6/05/21   8:50   10.6   10.6   10.3    76    6.5   2.0   WNW   0.17   4.0    SW   10.6   10.4   10.4  1004.7  0.00  0.00   0.027   0.000   29.2    27    8.3   28.0   5.55  .0715    117    1    100.0    5 
 6/05/21   8:55   10.8   10.8   10.6    76    6.7   2.0    SW   0.17   3.0    SW   10.8   10.6   10.6  1004.6  0.00  0.00   0.026   0.000   29.2    27    8.3   28.0   5.55  .0715    117    1    100.0    5 
 6/05/21   9:00   10.9   10.9   10.8    75    6.7   2.0    SW   0.17   4.0    SW   10.9   10.7   10.7  1004.6  0.00  0.00   0.026   0.000   29.3    27    8.3   28.0   5.55  .0715    117    1    100.0    5 
 6/05/21   9:05   11.2   11.2   10.9    75    6.9   2.0    SW   0.17   4.0    SW   11.2   10.9   10.9  1004.5  0.00  0.00   0.025   0.000   29.3    27    8.3   28.0   5.55  .0715    117    1    100.0    5 
 6/05/21   9:10   11.3   11.3   11.2    75    7.1   2.0     S   0.17   4.0   SSW   11.3   11.1   11.1  1004.4  0.00  0.00   0.024   0.000   29.3    27    8.4   28.1   5.55  .0715    118    1    100.0    5 
 6/05/21   9:15   11.5   11.5   11.3    75    7.2   2.0   SSE   0.17   4.0   SSE   11.5   11.2   11.2  1004.4  0.00  0.00   0.024   0.000   29.3    27    8.4   28.1   5.55  .0715    117    1    100.0    5 
 6/05/21   9:20   11.8   11.8   11.5    75    7.5   2.0     S   0.17   4.0     S   11.8   11.5   11.5  1004.4  0.00  0.00   0.023   0.000   29.4    27    8.4   28.1   5.55  .0714    116    1    100.0    5 
 6/05/21   9:25   12.1   12.1   11.8    74    7.6   3.0     S   0.25   4.0     S   12.1   11.8   11.8  1004.4  0.00  0.00   0.022   0.000   29.4    27    8.5   28.2   5.55  .0714    117    1    100.0    5 
 6/05/21   9:30   12.2   12.3   12.1    72    7.3   2.0   SSE   0.17   3.0     S   12.2   11.9   11.9  1004.4  0.00  0.00   0.021   0.000   29.4    27    8.5   28.2   5.55  .0714    116    1    100.0    5 
 6/05/21   9:35   12.4   12.4   12.2    71    7.3   2.0   SSE   0.17   4.0   SSE   12.4   12.1   12.1  1004.4  0.00  0.00   0.020   0.000   29.5    27    8.5   28.2   5.55  .0714    117    1    100.0    5 
 6/05/21   9:40   12.7   12.7   12.4    70    7.4   2.0   SSE   0.17   4.0   SSE   12.7   12.3   12.3  1004.4  0.00  0.00   0.019   0.000   29.5    27    8.5   28.2   5.55  .0714    117    1    100.0    5 
 6/05/21   9:45   12.9   12.9   12.7    68    7.2   3.0   SSE   0.25   3.0   SSE   12.9   12.4   12.4  1004.3  0.00  0.00   0.019   0.000   29.6    27    8.6   28.3   5.54  .0714    117    1    100.0    5 
 6/05/21   9:50   13.1   13.1   12.9    67    7.1   2.0   SSE   0.17   4.0   SSE   13.1   12.6   12.6  1004.3  0.00  0.00   0.018   0.000   29.7    27    8.7   28.4   5.54  .0714    117    1    100.0    5 
 6/05/21   9:55   13.3   13.3   13.1    67    7.3   3.0     S   0.25   4.0     S   13.3   12.8   12.8  1004.3  0.00  0.00   0.018   0.000   29.7    27    8.7   28.4   5.54  .0713    116    1    100.0    5 
 6/05/21  10:00   13.2   13.3   13.2    65    6.8   3.0     S   0.25   5.0   SSW   13.2   12.7   12.7  1004.3  0.00  0.00   0.018   0.000   29.7    27    8.7   28.4   5.54  .0713    116    1    100.0    5 
 6/05/21  10:05   13.1   13.2   13.1    65    6.7   3.0     S   0.25   6.0     S   13.1   12.6   12.6  1004.3  0.00  0.00   0.018   0.000   29.8    27    8.8   28.5   5.54  .0713    115    1    100.0    5 
 6/05/21  10:10   12.9   13.1   12.9    65    6.5   3.0   SSE   0.25   5.0   SSE   12.9   12.4   12.4  1004.2  0.00  0.00   0.019   0.000   29.8    27    8.8   28.6   5.54  .0713    117    1    100.0    5 
 6/05/21  10:15   12.8   12.9   12.8    65    6.4   3.0     S   0.25   5.0     S   12.8   12.3   12.3  1004.2  0.00  0.00   0.019   0.000   29.8    27    8.8   28.6   5.54  .0713    116    1    100.0    5 
 6/05/21  10:20   12.7   12.8   12.7    65    6.3   4.0     S   0.33   6.0     S   12.4   12.1   11.9  1004.2  0.00  0.00   0.020   0.000   29.9    27    8.9   28.7   5.53  .0713    116    1    100.0    5 
 6/05/21  10:25   12.4   12.7   12.4    66    6.3   4.0   SSE   0.33   6.0     S   12.2   11.9   11.7  1004.3  0.00  0.00   0.020   0.000   29.9    27    8.9   28.7   5.53  .0713    117    1    100.0    5 
 6/05/21  10:30   12.3   12.4   12.3    66    6.2   5.0     S   0.42   8.0     S   11.7   11.8   11.2  1004.2  0.00  0.00   0.021   0.000   29.9    26    8.4   28.6   5.35  .0713    116    1    100.0    5 
 6/05/21  10:35   12.2   12.3   12.2    67    6.2   4.0   SSE   0.33   8.0     S   11.9   11.7   11.4  1004.2  0.00  0.00   0.021   0.000   30.0    27    9.0   28.8   5.53  .0713    116    1    100.0    5 
 6/05/21  10:40   12.0   12.2   12.0    66    5.8   4.0     S   0.33   7.0     S   11.7   11.5   11.2  1004.2  0.00  0.00   0.022   0.000   29.9    27    8.9   28.7   5.53  .0713    116    1    100.0    5 
 6/05/21  10:45   11.8   11.9   11.8    67    5.9   4.0     S   0.33   6.0     S   11.5   11.4   11.1  1004.2  0.00  0.00   0.023   0.000   30.0    27    9.0   28.8   5.53  .0713    117    1    100.0    5 
 6/05/21  10:50   11.8   11.8   11.8    67    5.8   5.0     S   0.42   7.0     S   11.1   11.3   10.6  1004.2  0.00  0.00   0.023   0.000   30.0    27    9.0   28.8   5.53  .0713    116    1    100.0    5 
 6/05/21  10:55   11.8   11.8   11.8    68    6.1   5.0     S   0.42   7.0     S   11.1   11.3   10.6  1004.2  0.00  0.00   0.023   0.000   30.1    27    9.0   28.8   5.53  .0712    117    1    100.0    5 
 6/05/21  11:00   11.8   11.8   11.8    67    5.9   5.0   SSW   0.42   8.0     S   11.2   11.4   10.7  1004.1  0.00  0.00   0.023   0.000   30.1    27    9.0   28.8   5.53  .0712    117    1    100.0    5 
 6/05/21  11:05   12.0   12.1   11.8    67    6.1   4.0     S   0.33   7.0     S   11.7   11.5   11.2  1004.2  0.00  0.00   0.022   0.000   30.1    27    9.0   28.8   5.53  .0712    116    1    100.0    5 
 6/05/21  11:10   12.3   12.3   12.1    67    6.4   5.0     S   0.42   7.0     S   11.7   11.8   11.2  1004.2  0.00  0.00   0.021   0.000   30.1    27    9.0   28.8   5.53  .0712    116    1    100.0    5 
 6/05/21  11:15   12.6   12.6   12.3    66    6.4   6.0     S   0.50   8.0     S   11.7   12.0   11.2  1004.2  0.00  0.00   0.020   0.000   30.1    27    9.0   28.8   5.53  .0712    118    1    100.0    5 
 6/05/21  11:20   12.8   12.8   12.6    64    6.1   5.0     S   0.42   8.0     S   12.3   12.2   11.7  1004.1  0.00  0.00   0.019   0.000   30.1    27    9.0   28.8   5.53  .0712    117    1    100.0    5 
 6/05/21  11:25   12.9   12.9   12.8    64    6.3   6.0     S   0.50   9.0     S   12.2   12.3   11.6  1004.1  0.00  0.00   0.019   0.000   30.1    27    9.1   28.8   5.53  .0712    116    1    100.0    5 
 6/05/21  11:30   13.1   13.1   12.9    63    6.2   6.0     S   0.50   9.0     S   12.3   12.4   11.7  1004.1  0.00  0.00   0.018   0.000   30.1    27    9.1   28.8   5.53  .0712    117    1    100.0    5 
 6/05/21  11:35   13.1   13.2   13.1    63    6.2   6.0     S   0.50   9.0     S   12.4   12.5   11.8  1004.1  0.00  0.00   0.018   0.000   30.1    27    9.1   28.8   5.53  .0712    117    1    100.0    5 
 6/05/21  11:40   13.2   13.2   13.1    62    6.1   6.0   SSW   0.50   8.0     S   12.6   12.6   11.9  1004.0  0.00  0.00   0.018   0.000   30.1    27    9.0   28.8   5.53  .0712    117    1    100.0    5 
 6/05/21  11:45   13.2   13.2   13.1    61    5.8   7.0     S   0.58   9.0     S   12.2   12.5   11.6  1004.0  0.00  0.00   0.018   0.000   30.1    27    9.1   28.8   5.53  .0712    117    1    100.0    5 
 6/05/21  11:50   13.1   13.2   13.1    62    6.0   7.0     S   0.58   9.0     S   12.2   12.4   11.5  1004.1  0.00  0.00   0.018   0.000   30.1    27    9.1   28.8   5.53  .0712    117    1    100.0    5 
 6/05/21  11:55   13.1   13.2   13.1    62    6.0   8.0   SSW   0.67  11.0     S   11.8   12.4   11.1  1004.1  0.00  0.00   0.018   0.000   30.1    27    9.1   28.8   5.53  .0712    116    1    100.0    5 
 6/05/21  12:00   13.2   13.2   13.1    62    6.0   7.0   SSW   0.58   9.0   SSW   12.2   12.5   11.6  1004.1  0.00  0.00   0.018   0.000   30.2    27    9.1   28.9   5.52  .0712    117    1    100.0    5 
 6/05/21  12:05   13.3   13.3   13.2    58    5.2   7.0   SSW   0.58   8.0   SSW   12.4   12.5   11.6  1004.1  0.00  0.00   0.018   0.000   30.2    27    9.1   28.9   5.52  .0712    116    1    100.0    5 
 6/05/21  12:10   13.6   13.6   13.3    57    5.2   7.0   SSW   0.58   9.0     S   12.7   12.7   11.9  1004.1  0.00  0.00   0.017   0.000   30.2    27    9.1   28.9   5.52  .0712    116    1    100.0    5 
 6/05/21  12:15   13.6   13.6   13.6    57    5.2   7.0   SSW   0.58   8.0   SSW   12.8   12.8   11.9  1004.0  0.00  0.00   0.016   0.000   30.2    27    9.1   28.9   5.52  .0712    117    1    100.0    5 
 6/05/21  12:20   13.8   13.8   13.6    58    5.7   7.0   SSW   0.58  10.0     S   13.0   13.0   12.2  1004.0  0.00  0.00   0.016   0.000   30.2    27    9.1   28.9   5.52  .0712    118    1    100.0    5 
 6/05/21  12:25   14.1   14.1   13.8    58    5.9   8.0   SSW   0.67  11.0     S   12.9   13.3   12.2  1004.0  0.00  0.00   0.015   0.000   30.2    27    9.1   28.9   5.52  .0712    115    1    100.0    5 
 6/05/21  12:30   14.3   14.3   14.1    58    6.2   8.0   SSW   0.67  12.0     S   13.3   13.6   12.5  1004.0  0.00  0.00   0.014   0.000   30.2    27    9.1   28.9   5.52  .0712    117    1    100.0    5 
 6/05/21  12:35   14.5   14.5   14.3    58    6.3   8.0   SSW   0.67  12.0    SW   13.4   13.7   12.7  1004.0  0.00  0.00   0.013   0.000   30.3    26    8.6   28.9   5.35  .0712    117    1    100.0    5 
 6/05/21  12:40   14.7   14.8   14.5    55    5.8   9.0   SSW   0.75  12.0    SW   13.3   13.8   12.4  1004.0  0.00  0.00   0.013   0.000   30.4    26    8.7   29.0   5.35  .0712    116    1    100.0    5 
 6/05/21  12:45   14.4   14.7   14.4    56    5.7   9.0   SSW   0.75  13.0     S   12.9   13.6   12.1  1004.0  0.00  0.00   0.014   0.000   30.4    26    8.7   29.0   5.35  .0712    117    1    100.0    5 
 6/05/21  12:50   14.1   14.4   14.1    56    5.4   9.0   SSW   0.75  12.0    SW   12.5   13.2   11.7  1004.0  0.00  0.00   0.015   0.000   30.4    26    8.7   29.0   5.35  .0712    116    1    100.0    5 
 6/05/21  12:55   13.6   14.1   13.6    57    5.2   9.0   SSW   0.75  12.0    SW   12.0   12.8   11.2  1004.0  0.00  0.00   0.016   0.000   30.4    26    8.7   29.0   5.35  .0712    117    1    100.0    5 
 6/05/21  13:00   13.6   13.6   13.5    59    5.7   8.0   SSW   0.67  10.0    SW   12.3   12.8   11.6  1004.0  0.00  0.00   0.017   0.000   30.4    26    8.7   29.0   5.35  .0712    117    1    100.0    5 
 6/05/21  13:05   13.6   13.6   13.5    59    5.7   9.0   SSW   0.75  12.0    SW   11.9   12.8   11.1  1004.0  0.00  0.00   0.017   0.000   30.4    26    8.8   29.1   5.35  .0712    117    1    100.0    5 
 6/05/21  13:10   13.8   13.8   13.5    59    5.9   9.0   SSW   0.75  13.0    SW   12.2   13.0   11.4  1004.0  0.00  0.00   0.016   0.000   30.6    26    8.9   29.2   5.35  .0711    117    1    100.0    5 
 6/05/21  13:15   13.7   13.8   13.7    57    5.3   9.0   SSW   0.75  13.0    SW   12.1   12.9   11.3  1004.1  0.00  0.00   0.016   0.000   30.6    26    8.9   29.2   5.35  .0711    116    1    100.0    5 
 6/05/21  13:20   13.7   13.7   13.6    58    5.5   9.0    SW   0.75  13.0    SW   12.1   12.9   11.3  1004.1  0.00  0.00   0.016   0.000   30.6    26    8.9   29.2   5.35  .0711    117    1    100.0    5 
 6/05/21  13:25   13.3   13.7   13.3    58    5.2  10.0   SSW   0.83  13.0    SW   11.3   12.6   10.5  1004.1  0.00  0.00   0.017   0.000   30.6    26    8.9   29.2   5.35  .0711    118    1    100.0    5 
 6/05/21  13:30   13.1   13.3   13.1    60    5.5  11.0   SSW   0.92  14.0    SW   10.7   12.3    9.9  1004.1  0.00  0.00   0.018   0.000   30.6    26    8.9   29.2   5.35  .0711    117    1    100.0    5 
 6/05/21  13:35   12.7   13.0   12.7    61    5.3  11.0   SSW   0.92  14.0    SW   10.2   12.0    9.6  1004.0  0.00  0.00   0.020   0.000   30.7    26    9.0   29.2   5.35  .0711    116    1    100.0    5 
 6/05/21  13:40   12.5   12.7   12.5    62    5.4  10.0   SSW   0.83  13.0    SW   10.3   11.8    9.7  1004.1  0.00  0.00   0.020   0.000   30.7    26    9.0   29.2   5.35  .0711    117    1    100.0    5 
 6/05/21  13:45   12.3   12.6   12.3    63    5.5  10.0    SW   0.83  14.0    SW   10.1   11.7    9.5  1004.0  0.00  0.00   0.021   0.000   30.7    26    9.0   29.2   5.35  .0711    117    1    100.0    5 
 6/05/21  13:50   12.2   12.3   12.2    62    5.1  10.0    SW   0.83  13.0    SW   10.0   11.6    9.4  1004.0  0.00  0.00   0.021   0.000   30.7    26    9.0   29.2   5.35  .0711    116    1    100.0    5 
 6/05/21  13:55   12.1   12.2   12.1    63    5.3   9.0    SW   0.75  12.0    SW   10.2   11.5    9.6  1004.0  0.00  0.00   0.022   0.000   30.7    26    9.0   29.3   5.35  .0711    117    1    100.0    5 
 6/05/21  14:00   12.1   12.1   12.1    64    5.4  10.0    SW   0.83  14.0    SW    9.8   11.5    9.2  1004.1  0.00  0.00   0.022   0.000   30.7    26    9.0   29.3   5.35  .0711    117    1    100.0    5 
 6/05/21  14:05   12.1   12.1   12.0    63    5.2  10.0    SW   0.83  13.0    SW    9.8   11.4    9.2  1004.1  0.00  0.00   0.022   0.000   30.7    26    9.0   29.2   5.35  .0711    117    1    100.0    5 
 6/05/21  14:10   12.4   12.4   12.1    62    5.3  10.0    SW   0.83  14.0    SW   10.2   11.8    9.6  1004.1  0.00  0.00   0.021   0.000   30.7    26    9.0   29.2   5.35  .0711    116    1    100.0    5 
 6/05/21  14:15   12.7   12.7   12.4    63    5.8  10.0    SW   0.83  14.0    SW   10.5   12.1    9.9  1004.1  0.00  0.00   0.020   0.000   30.6    26    8.9   29.2   5.35  .0711    117    1    100.0    5 
 6/05/21  14:20   12.5   12.7   12.5    63    5.6   9.0    SW   0.75  14.0    SW   10.7   11.9   10.1  1004.1  0.00  0.00   0.020   0.000   30.6    26    8.9   29.2   5.35  .0711    116    1    100.0    5 
 6/05/21  14:25   12.7   12.7   12.5    63    5.8   8.0    SW   0.67  13.0    SW   11.3   12.1   10.7  1004.1  0.00  0.00   0.020   0.000   30.6    26    8.9   29.2   5.35  .0711    118    1    100.0    5 
 6/05/21  14:30   13.0   13.0   12.7    63    6.1   9.0    SW   0.75  13.0    SW   11.3   12.4   10.7  1004.1  0.00  0.00   0.019   0.000   30.6    26    8.9   29.2   5.35  .0711    117    1    100.0    5 
 6/05/21  14:35   13.2   13.2   13.1    62    6.0  10.0    SW   0.83  16.0    SW   11.1   12.5   10.4  1004.2  0.00  0.00   0.018   0.000   30.6    26    8.9   29.2   5.35  .0711    117    1    100.0    5 
 6/05/21  14:40   13.3   13.3   13.2    61    6.0  11.0   SSW   0.92  16.0    SW   10.9   12.7   10.3  1004.1  0.00  0.00   0.017   0.000   30.7    26    9.0   29.2   5.35  .0711    117    1    100.0    5 
 6/05/21  14:45   13.2   13.4   13.2    60    5.6  11.0    SW   0.92  15.0    SW   10.8   12.5   10.1  1004.2  0.00  0.00   0.018   0.000   30.6    26    8.9   29.2   5.35  .0711    115    1    100.0    5 
 6/05/21  14:50   12.7   13.2   12.7    62    5.6  11.0    SW   0.92  14.0    SW   10.3   12.1    9.6  1004.3  0.00  0.00   0.019   0.000   30.7    26    9.0   29.2   5.35  .0711    117    1    100.0    5 
 6/05/21  14:55   12.1   12.7   12.1    62    5.0  10.0    SW   0.83  14.0    SW    9.9   11.5    9.3  1004.3  0.00  0.00   0.022   0.000   30.7    26    9.0   29.3   5.35  .0711    116    1    100.0    5 
 6/05/21  15:00   11.7   12.1   11.7    64    5.1  10.0    SW   0.83  14.0    SW    9.3   11.2    8.8  1004.4  0.00  0.00   0.023   0.000   30.7    26    9.0   29.3   5.35  .0711    117    1    100.0    5 
 6/05/21  15:05   11.3   11.7   11.2    65    4.9   8.0    SW   0.67  13.0    SW    9.6   10.8    9.2  1004.4  0.00  0.00   0.024   0.000   30.7    26    9.0   29.3   5.35  .0711    117    1    100.0    5 
 6/05/21  15:10   11.1   11.3   11.1    66    4.9   7.0    SW   0.58  13.0    SW    9.7   10.7    9.3  1004.5  0.00  0.00   0.025   0.000   30.7    26    9.0   29.3   5.35  .0711    115    1    100.0    5 
 6/05/21  15:15   10.9   11.1   10.9    70    5.6   7.0   WSW   0.58  13.0    SW    9.5   10.6    9.2  1004.5  0.00  0.00   0.026   0.000   30.7    26    9.0   29.3   5.35  .0711    115    1    100.0    5 
 6/05/21  15:20   10.7   10.9   10.7    70    5.5   6.0   WSW   0.50  13.0    SW    9.6   10.4    9.3  1004.5  0.00  0.00   0.026   0.000   30.7    26    9.0   29.3   5.35  .0711    115    1    100.0    5 
 6/05/21  15:25   10.7   10.7   10.7    70    5.4   8.0   WSW   0.67  16.0    SW    8.8   10.4    8.6  1004.6  0.00  0.00   0.027   0.000   30.7    26    9.0   29.3   5.35  .0711    116    1    100.0    5 
 6/05/21  15:30   10.6   10.7   10.6    70    5.4   9.0    SW   0.75  15.0    SW    8.4   10.3    8.2  1004.6  0.00  0.00   0.027   0.000   30.7    26    9.0   29.2   5.35  .0711    116    1    100.0    5 
 6/05/21  15:35   10.7   10.7   10.6    70    5.4   7.0    SW   0.58  13.0    SW    9.2   10.4    8.9  1004.7  0.00  0.00   0.027   0.000   30.7    26    9.0   29.3   5.35  .0711    117    1    100.0    5 
 6/05/21  15:45   11.2   11.2   10.8    68    5.5   2.0   WNW   0.17   7.0     N   11.2   10.8   10.8  1004.8  0.00  0.00   0.025   0.000   30.7    26    9.0   29.3   5.35  .0711     89    1     78.1    5 
 6/05/21  15:50   11.6   11.6   11.2    60    4.1   7.0   NNW   0.58  14.0     N   10.4   11.0    9.8  1004.7  0.00  0.00   0.023   0.000   30.7    26    9.0   29.3   5.35  .0711    117    1    100.0    5 
98882